| time (UTC) | temp C | wind direction | speed KPH | gust KPH | rain 1hr cm | rain 24hr cm | rain mn cm | humidity % | barometer mb |
| 20260504100539 | 21 | 252 | 3.2 | 4.8 | 0.00 | 0.30 | 0.00 | 82 | 1020.4 |
| 20260504100441 | 21 | 252 | 1.6 | 4.8 | 0.00 | 0.30 | 0.00 | 82 | 1020.3 |
| 20260504100307 | 21 | 252 | 3.2 | 4.8 | 0.00 | 0.30 | 0.00 | 82 | 1020.3 |
| 20260504100210 | 21 | 252 | 3.2 | 4.8 | 0.00 | 0.30 | 0.00 | 82 | 1020.3 |
| 20260504100114 | 21 | 252 | 3.2 | 4.8 | 0.00 | 0.30 | 0.00 | 82 | 1020.4 |
| 20260504090112 | 22 | 254 | 1.6 | 3.2 | 0.00 | 0.30 | 0.00 | 80 | 1020.1 |
| 20260504081904 | 22 | 118 | 4.8 | 6.4 | 0.00 | 0.30 | 0.00 | 80 | 1019.9 |
| 20260504081811 | 22 | 126 | 4.8 | 6.4 | 0.00 | 0.30 | 0.00 | 80 | 1019.9 |
| 20260504081714 | 22 | 128 | 4.8 | 6.4 | 0.00 | 0.30 | 0.00 | 80 | 1019.9 |
| 20260504081636 | 22 | 107 | 3.2 | 6.4 | 0.00 | 0.30 | 0.00 | 80 | 1019.9 |
| 20260504081518 | 22 | 107 | 3.2 | 6.4 | 0.00 | 0.30 | 0.00 | 80 | 1019.9 |
| 20260504081421 | 22 | 107 | 3.2 | 6.4 | 0.00 | 0.30 | 0.00 | 80 | 1020.0 |
| 20260504081303 | 22 | 108 | 3.2 | 6.4 | 0.00 | 0.30 | 0.00 | 80 | 1020.1 |
| 20260504081210 | 22 | 108 | 1.6 | 6.4 | 0.00 | 0.30 | 0.00 | 80 | 1020.1 |
| 20260504081114 | 22 | 108 | 1.6 | 11.3 | 0.00 | 0.30 | 0.00 | 80 | 1020.1 |
| 20260504081017 | 22 | 108 | 3.2 | 11.3 | 0.00 | 0.30 | 0.00 | 80 | 1020.1 |
| 20260504080920 | 22 | 109 | 3.2 | 11.3 | 0.00 | 0.30 | 0.00 | 80 | 1020.1 |
| 20260504080823 | 22 | 108 | 3.2 | 12.9 | 0.00 | 0.30 | 0.00 | 80 | 1020.2 |
| 20260504080703 | 22 | 108 | 3.2 | 12.9 | 0.00 | 0.30 | 0.00 | 80 | 1020.2 |
| 20260504080605 | 22 | 108 | 3.2 | 14.5 | 0.00 | 0.30 | 0.00 | 80 | 1020.3 |
| 20260504080513 | 22 | 109 | 3.2 | 14.5 | 0.00 | 0.30 | 0.00 | 80 | 1020.3 |
| 20260504080435 | 22 | 105 | 4.8 | 14.5 | 0.00 | 0.30 | 0.00 | 80 | 1020.3 |
| 20260504080318 | 22 | 104 | 4.8 | 14.5 | 0.00 | 0.30 | 0.00 | 80 | 1020.3 |
| 20260504080222 | 22 | 104 | 6.4 | 14.5 | 0.00 | 0.30 | 0.00 | 80 | 1020.3 |
| 20260504080104 | 22 | 128 | 8.0 | 14.5 | 0.00 | 0.30 | 0.00 | 80 | 1020.4 |
| 20260504070412 | 21 | 248 | 0.0 | 3.2 | 0.00 | 0.30 | 0.00 | 83 | 1021.2 |
| 20260504070316 | 21 | 248 | 0.0 | 3.2 | 0.00 | 0.30 | 0.00 | 83 | 1021.1 |
| 20260504070220 | 21 | 248 | 0.0 | 3.2 | 0.00 | 0.30 | 0.00 | 83 | 1021.2 |
| 20260504070122 | 21 | 248 | 0.0 | 3.2 | 0.00 | 0.30 | 0.00 | 83 | 1021.2 |
| 20260504060214 | 22 | 248 | 0.0 | 0.0 | 0.00 | 0.30 | 0.00 | 82 | 1022.1 |
| 20260504060116 | 22 | 248 | 0.0 | 0.0 | 0.00 | 0.30 | 0.00 | 82 | 1022.2 |
| 20260504050742 | 22 | 284 | 0.0 | 3.2 | 0.00 | 0.30 | 0.08 | 82 | 1022.9 |
| 20260504050609 | 22 | 284 | 1.6 | 4.8 | 0.00 | 0.30 | 0.08 | 82 | 1023.0 |
| 20260504050511 | 22 | 284 | 1.6 | 4.8 | 0.00 | 0.30 | 0.08 | 81 | 1023.0 |
| 20260504050414 | 22 | 284 | 1.6 | 4.8 | 0.00 | 0.30 | 0.08 | 81 | 1023.1 |
| 20260504050338 | 22 | 284 | 1.6 | 4.8 | 0.00 | 0.30 | 0.08 | 81 | 1023.1 |
| 20260504050242 | 22 | 284 | 1.6 | 6.4 | 0.00 | 0.30 | 0.08 | 81 | 1023.0 |
| 20260504050104 | 22 | 284 | 1.6 | 6.4 | 0.00 | 0.30 | 0.08 | 81 | 1023.0 |
| 20260504050006 | 22 | 284 | 1.6 | 6.4 | 0.00 | 0.30 | 0.08 | 81 | 1023.0 |
| 20260504045909 | 22 | 285 | 3.2 | 6.4 | 0.00 | 0.30 | 0.08 | 81 | 1023.1 |
| 20260504045832 | 22 | 284 | 3.2 | 6.4 | 0.00 | 0.30 | 0.08 | 81 | 1023.1 |
| 20260504045717 | 22 | 284 | 3.2 | 6.4 | 0.00 | 0.30 | 0.08 | 81 | 1023.1 |
| 20260504045620 | 22 | 284 | 4.8 | 6.4 | 0.00 | 0.30 | 0.08 | 81 | 1023.1 |
| 20260504045523 | 22 | 284 | 4.8 | 6.4 | 0.00 | 0.30 | 0.08 | 81 | 1023.1 |
| 20260504045407 | 22 | 284 | 4.8 | 6.4 | 0.00 | 0.30 | 0.08 | 81 | 1023.1 |
| 20260504045310 | 22 | 286 | 4.8 | 6.4 | 0.00 | 0.30 | 0.08 | 81 | 1023.0 |
| 20260504045212 | 22 | 286 | 3.2 | 6.4 | 0.00 | 0.30 | 0.08 | 81 | 1023.1 |
| 20260504045140 | 22 | 287 | 3.2 | 4.8 | 0.00 | 0.30 | 0.08 | 81 | 1023.1 |
| 20260504045023 | 22 | 287 | 3.2 | 4.8 | 0.00 | 0.30 | 0.08 | 81 | 1023.1 |
| 20260504044927 | 22 | 287 | 3.2 | 4.8 | 0.00 | 0.30 | 0.08 | 81 | 1023.2 |
| 20260504044809 | 22 | 287 | 3.2 | 4.8 | 0.00 | 0.30 | 0.08 | 81 | 1023.2 |
| 20260504044712 | 22 | 287 | 3.2 | 4.8 | 0.00 | 0.30 | 0.08 | 81 | 1023.3 |
| 20260504044614 | 22 | 287 | 1.6 | 4.8 | 0.00 | 0.30 | 0.08 | 81 | 1023.2 |
| 20260504044518 | 22 | 287 | 1.6 | 4.8 | 0.00 | 0.30 | 0.08 | 81 | 1023.2 |
| 20260504044405 | 22 | 287 | 1.6 | 4.8 | 0.00 | 0.30 | 0.08 | 81 | 1023.2 |
| 20260504044309 | 22 | 287 | 1.6 | 4.8 | 0.00 | 0.30 | 0.08 | 81 | 1023.3 |
| 20260504044213 | 22 | 287 | 3.2 | 4.8 | 0.00 | 0.30 | 0.08 | 81 | 1023.2 |
| 20260504044116 | 22 | 287 | 3.2 | 4.8 | 0.00 | 0.30 | 0.08 | 81 | 1023.2 |
| 20260504044020 | 22 | 287 | 3.2 | 4.8 | 0.00 | 0.30 | 0.08 | 81 | 1023.3 |
| 20260504043943 | 22 | 287 | 3.2 | 4.8 | 0.00 | 0.30 | 0.08 | 81 | 1023.3 |
| 20260504043810 | 22 | 287 | 3.2 | 4.8 | 0.00 | 0.30 | 0.08 | 81 | 1023.4 |
| 20260504043734 | 22 | 287 | 3.2 | 4.8 | 0.00 | 0.30 | 0.08 | 81 | 1023.4 |
| 20260504043614 | 22 | 287 | 1.6 | 4.8 | 0.00 | 0.30 | 0.08 | 81 | 1023.3 |
| 20260504043516 | 22 | 287 | 1.6 | 3.2 | 0.00 | 0.30 | 0.08 | 80 | 1023.5 |
| 20260504043439 | 22 | 287 | 0.0 | 1.6 | 0.00 | 0.30 | 0.08 | 80 | 1023.5 |
| 20260504043341 | 22 | 287 | 0.0 | 3.2 | 0.00 | 0.30 | 0.08 | 80 | 1023.5 |
| 20260504043204 | 22 | 287 | 0.0 | 3.2 | 0.00 | 0.30 | 0.08 | 80 | 1023.5 |
| 20260504043107 | 22 | 287 | 0.0 | 3.2 | 0.00 | 0.30 | 0.08 | 80 | 1023.5 |
| 20260504043014 | 22 | 287 | 0.0 | 3.2 | 0.00 | 0.30 | 0.08 | 80 | 1023.5 |
| 20260504042917 | 22 | 287 | 0.0 | 3.2 | 0.00 | 0.30 | 0.08 | 80 | 1023.4 |
| 20260504042821 | 22 | 287 | 0.0 | 3.2 | 0.00 | 0.30 | 0.08 | 80 | 1023.3 |
| 20260504042704 | 22 | 287 | 0.0 | 4.8 | 0.00 | 0.30 | 0.08 | 80 | 1023.4 |
| 20260504042608 | 22 | 287 | 0.0 | 4.8 | 0.00 | 0.30 | 0.08 | 80 | 1023.4 |
| 20260504042512 | 22 | 287 | 1.6 | 4.8 | 0.00 | 0.30 | 0.08 | 80 | 1023.3 |
| 20260504042414 | 22 | 287 | 1.6 | 4.8 | 0.00 | 0.30 | 0.08 | 80 | 1023.3 |
| 20260504042320 | 22 | 287 | 0.0 | 4.8 | 0.00 | 0.30 | 0.08 | 80 | 1023.2 |
| 20260504042205 | 22 | 287 | 1.6 | 4.8 | 0.00 | 0.30 | 0.08 | 80 | 1023.3 |
| 20260504042107 | 22 | 287 | 1.6 | 4.8 | 0.00 | 0.30 | 0.08 | 80 | 1023.3 |
| 20260504042011 | 22 | 287 | 3.2 | 4.8 | 0.00 | 0.30 | 0.08 | 80 | 1023.3 |
| 20260504041914 | 22 | 287 | 1.6 | 4.8 | 0.00 | 0.30 | 0.08 | 80 | 1023.3 |
| 20260504041819 | 22 | 290 | 1.6 | 3.2 | 0.00 | 0.30 | 0.08 | 80 | 1023.4 |
| 20260504041726 | 22 | 290 | 1.6 | 3.2 | 0.00 | 0.30 | 0.08 | 80 | 1023.4 |
| 20260504041608 | 22 | 290 | 1.6 | 3.2 | 0.00 | 0.30 | 0.08 | 80 | 1023.3 |
| 20260504041511 | 22 | 290 | 3.2 | 3.2 | 0.00 | 0.30 | 0.08 | 80 | 1023.3 |
| 20260504041414 | 22 | 290 | 3.2 | 3.2 | 0.00 | 0.30 | 0.08 | 80 | 1023.4 |
| 20260504041337 | 22 | 290 | 1.6 | 3.2 | 0.00 | 0.30 | 0.08 | 79 | 1023.3 |
| 20260504041240 | 22 | 290 | 1.6 | 3.2 | 0.00 | 0.30 | 0.08 | 79 | 1023.3 |
| 20260504041142 | 22 | 290 | 1.6 | 3.2 | 0.00 | 0.30 | 0.08 | 79 | 1023.3 |
| 20260504041008 | 22 | 290 | 1.6 | 3.2 | 0.00 | 0.30 | 0.08 | 79 | 1023.3 |
| 20260504040912 | 22 | 290 | 0.0 | 3.2 | 0.00 | 0.30 | 0.08 | 79 | 1023.3 |
| 20260504040815 | 22 | 290 | 0.0 | 3.2 | 0.00 | 0.30 | 0.08 | 79 | 1023.4 |
| 20260504040717 | 22 | 290 | 0.0 | 3.2 | 0.00 | 0.30 | 0.08 | 79 | 1023.3 |
| 20260504040639 | 23 | 290 | 0.0 | 4.8 | 0.00 | 0.30 | 0.08 | 79 | 1023.3 |
| 20260504040541 | 23 | 290 | 1.6 | 4.8 | 0.00 | 0.30 | 0.08 | 79 | 1023.2 |
| 20260504040420 | 23 | 290 | 1.6 | 4.8 | 0.00 | 0.30 | 0.08 | 79 | 1023.4 |
| 20260504040304 | 23 | 290 | 0.0 | 4.8 | 0.00 | 0.30 | 0.08 | 79 | 1023.2 |
| 20260504040208 | 23 | 290 | 0.0 | 4.8 | 0.00 | 0.30 | 0.08 | 79 | 1023.3 |
| 20260504040115 | 23 | 290 | 1.6 | 4.8 | 0.00 | 0.30 | 0.08 | 79 | 1023.3 |
| 20260504040018 | 23 | 290 | 1.6 | 4.8 | 0.00 | 0.30 | 0.08 | 79 | 1023.2 |
| 20260504035919 | 23 | 290 | 3.2 | 4.8 | 0.00 | 0.30 | 0.08 | 79 | 1023.2 |
| 20260504035821 | 23 | 290 | 3.2 | 4.8 | 0.00 | 0.30 | 0.08 | 79 | 1023.2 |
| 20260504035722 | 23 | 290 | 3.2 | 4.8 | 0.00 | 0.30 | 0.08 | 79 | 1023.3 |
| 20260504035605 | 23 | 290 | 1.6 | 4.8 | 0.00 | 0.30 | 0.08 | 79 | 1023.3 |
| 20260504035528 | 23 | 290 | 0.0 | 3.2 | 0.00 | 0.30 | 0.08 | 79 | 1023.2 |
| 20260504035431 | 23 | 290 | 0.0 | 3.2 | 0.00 | 0.30 | 0.08 | 79 | 1023.2 |
| 20260504035314 | 23 | 290 | 0.0 | 3.2 | 0.00 | 0.30 | 0.08 | 79 | 1023.1 |
| 20260504035218 | 23 | 290 | 0.0 | 3.2 | 0.00 | 0.30 | 0.08 | 79 | 1023.1 |
| 20260504035120 | 23 | 290 | 0.0 | 3.2 | 0.00 | 0.30 | 0.08 | 79 | 1023.1 |
| 20260504035023 | 23 | 290 | 0.0 | 3.2 | 0.00 | 0.30 | 0.08 | 79 | 1023.1 |
| 20260504034905 | 23 | 290 | 1.6 | 3.2 | 0.00 | 0.30 | 0.08 | 79 | 1023.0 |
| 20260504034808 | 23 | 290 | 0.0 | 4.8 | 0.00 | 0.30 | 0.08 | 80 | 1023.1 |
| 20260504034710 | 23 | 290 | 0.0 | 4.8 | 0.00 | 0.30 | 0.08 | 79 | 1023.0 |
| 20260504034618 | 23 | 290 | 0.0 | 4.8 | 0.00 | 0.30 | 0.08 | 80 | 1023.1 |
| 20260504034522 | 23 | 290 | 0.0 | 6.4 | 0.00 | 0.30 | 0.08 | 80 | 1023.0 |
| 20260504034405 | 23 | 290 | 1.6 | 6.4 | 0.00 | 0.30 | 0.08 | 80 | 1023.0 |
| 20260504034308 | 23 | 290 | 1.6 | 6.4 | 0.00 | 0.30 | 0.08 | 80 | 1023.0 |
| 20260504034211 | 23 | 290 | 3.2 | 6.4 | 0.00 | 0.30 | 0.08 | 80 | 1023.0 |
| 20260504034114 | 23 | 288 | 3.2 | 6.4 | 0.00 | 0.30 | 0.08 | 80 | 1022.8 |
| 20260504034022 | 23 | 288 | 3.2 | 6.4 | 0.00 | 0.30 | 0.08 | 80 | 1022.8 |
| 20260504033906 | 23 | 288 | 3.2 | 6.4 | 0.00 | 0.30 | 0.08 | 80 | 1022.7 |
| 20260504033809 | 23 | 287 | 3.2 | 6.4 | 0.00 | 0.30 | 0.08 | 80 | 1022.8 |
| 20260504033713 | 23 | 284 | 3.2 | 6.4 | 0.00 | 0.30 | 0.08 | 80 | 1022.7 |
| 20260504033635 | 23 | 138 | 1.6 | 4.8 | 0.00 | 0.30 | 0.08 | 80 | 1022.7 |
| 20260504033517 | 23 | 138 | 1.6 | 4.8 | 0.00 | 0.30 | 0.08 | 80 | 1022.7 |
| 20260504033418 | 23 | 138 | 1.6 | 4.8 | 0.00 | 0.30 | 0.08 | 80 | 1022.7 |
| 20260504033305 | 23 | 138 | 3.2 | 4.8 | 0.00 | 0.30 | 0.08 | 80 | 1022.6 |
| 20260504033209 | 23 | 138 | 3.2 | 4.8 | 0.00 | 0.30 | 0.08 | 80 | 1022.6 |
| 20260504033113 | 23 | 138 | 3.2 | 4.8 | 0.00 | 0.30 | 0.08 | 80 | 1022.7 |
| 20260504033017 | 23 | 138 | 3.2 | 4.8 | 0.00 | 0.30 | 0.08 | 80 | 1022.6 |
| 20260504032921 | 23 | 138 | 1.6 | 4.8 | 0.00 | 0.30 | 0.08 | 80 | 1022.7 |
| 20260504032804 | 23 | 138 | 1.6 | 3.2 | 0.00 | 0.30 | 0.08 | 80 | 1022.7 |
| 20260504032711 | 23 | 138 | 0.0 | 3.2 | 0.00 | 0.30 | 0.08 | 80 | 1022.7 |
| 20260504032615 | 23 | 138 | 0.0 | 3.2 | 0.00 | 0.30 | 0.08 | 80 | 1022.7 |
| 20260504032519 | 23 | 138 | 0.0 | 3.2 | 0.00 | 0.30 | 0.08 | 80 | 1022.6 |
| 20260504032442 | 23 | 138 | 0.0 | 4.8 | 0.00 | 0.30 | 0.08 | 80 | 1022.7 |
| 20260504032344 | 23 | 138 | 0.0 | 4.8 | 0.00 | 0.30 | 0.08 | 80 | 1022.6 |
| 20260504032203 | 23 | 138 | 1.6 | 4.8 | 0.00 | 0.30 | 0.08 | 80 | 1022.6 |
| 20260504032105 | 23 | 138 | 1.6 | 4.8 | 0.00 | 0.30 | 0.08 | 80 | 1022.6 |
| 20260504032008 | 23 | 138 | 1.6 | 4.8 | 0.00 | 0.30 | 0.08 | 80 | 1022.5 |
| 20260504031916 | 23 | 138 | 0.0 | 4.8 | 0.00 | 0.30 | 0.08 | 80 | 1022.5 |
| 20260504031818 | 23 | 138 | 0.0 | 4.8 | 0.00 | 0.30 | 0.08 | 80 | 1022.6 |
| 20260504031721 | 23 | 138 | 1.6 | 4.8 | 0.00 | 0.30 | 0.08 | 81 | 1022.5 |
| 20260504031622 | 23 | 138 | 3.2 | 4.8 | 0.00 | 0.30 | 0.08 | 81 | 1022.4 |
| 20260504031525 | 23 | 138 | 3.2 | 4.8 | 0.00 | 0.30 | 0.08 | 81 | 1022.4 |
| 20260504031408 | 23 | 138 | 3.2 | 4.8 | 0.00 | 0.30 | 0.08 | 81 | 1022.4 |
| 20260504031331 | 23 | 122 | 3.2 | 4.8 | 0.00 | 0.30 | 0.08 | 81 | 1022.4 |
| 20260504031212 | 23 | 122 | 3.2 | 4.8 | 0.00 | 0.30 | 0.08 | 81 | 1022.4 |
| 20260504031138 | 23 | 122 | 1.6 | 4.8 | 0.00 | 0.30 | 0.08 | 81 | 1022.3 |
| 20260504031041 | 23 | 122 | 0.0 | 3.2 | 0.00 | 0.30 | 0.08 | 81 | 1022.3 |
| 20260504030944 | 23 | 121 | 0.0 | 3.2 | 0.00 | 0.30 | 0.08 | 81 | 1022.4 |
| 20260504030806 | 23 | 121 | 0.0 | 3.2 | 0.00 | 0.30 | 0.08 | 81 | 1022.4 |
| 20260504030710 | 23 | 121 | 0.0 | 3.2 | 0.00 | 0.30 | 0.08 | 81 | 1022.4 |
| 20260504030613 | 23 | 121 | 1.6 | 3.2 | 0.00 | 0.30 | 0.08 | 81 | 1022.3 |
| 20260504030536 | 23 | 121 | 0.0 | 3.2 | 0.00 | 0.30 | 0.08 | 81 | 1022.4 |
| 20260504030417 | 23 | 121 | 1.6 | 3.2 | 0.00 | 0.30 | 0.08 | 81 | 1022.3 |
| 20260504030340 | 23 | 121 | 1.6 | 3.2 | 0.00 | 0.30 | 0.08 | 81 | 1022.3 |
| 20260504030207 | 23 | 122 | 0.0 | 3.2 | 0.00 | 0.30 | 0.08 | 81 | 1022.4 |
| 20260504030109 | 23 | 121 | 0.0 | 3.2 | 0.00 | 0.30 | 0.08 | 81 | 1022.3 |
| 20260504030012 | 23 | 121 | 0.0 | 3.2 | 0.00 | 0.30 | 0.08 | 81 | 1022.6 |
| 20260504025916 | 23 | 122 | 1.6 | 3.2 | 0.00 | 0.30 | 0.08 | 81 | 1022.4 |
| 20260504025820 | 23 | 122 | 1.6 | 3.2 | 0.00 | 0.30 | 0.08 | 80 | 1022.4 |
| 20260504025707 | 23 | 122 | 1.6 | 3.2 | 0.00 | 0.30 | 0.08 | 81 | 1022.3 |
| 20260504025610 | 23 | 122 | 1.6 | 3.2 | 0.00 | 0.30 | 0.08 | 81 | 1022.4 |
| 20260504025514 | 23 | 122 | 1.6 | 4.8 | 0.00 | 0.30 | 0.08 | 80 | 1022.5 |
| 20260504025437 | 23 | 122 | 1.6 | 4.8 | 0.00 | 0.30 | 0.08 | 80 | 1022.4 |
| 20260504025339 | 23 | 122 | 0.0 | 4.8 | 0.00 | 0.30 | 0.08 | 80 | 1022.4 |
| 20260504025219 | 23 | 122 | 0.0 | 4.8 | 0.00 | 0.30 | 0.08 | 80 | 1022.4 |
| 20260504025143 | 23 | 122 | 0.0 | 4.8 | 0.00 | 0.30 | 0.08 | 80 | 1022.4 |
| 20260504025022 | 23 | 122 | 1.6 | 4.8 | 0.00 | 0.30 | 0.08 | 80 | 1022.5 |
| 20260504024907 | 23 | 122 | 3.2 | 4.8 | 0.00 | 0.30 | 0.08 | 80 | 1022.4 |
| 20260504024814 | 23 | 122 | 3.2 | 4.8 | 0.00 | 0.30 | 0.08 | 80 | 1022.4 |
| 20260504024717 | 23 | 122 | 1.6 | 4.8 | 0.00 | 0.30 | 0.08 | 80 | 1022.4 |
| 20260504024622 | 23 | 122 | 0.0 | 4.8 | 0.00 | 0.30 | 0.08 | 80 | 1022.4 |
| 20260504024504 | 23 | 121 | 0.0 | 3.2 | 0.00 | 0.30 | 0.08 | 80 | 1022.4 |
| 20260504024408 | 23 | 121 | 0.0 | 3.2 | 0.00 | 0.30 | 0.08 | 80 | 1022.4 |
| 20260504024311 | 23 | 121 | 1.6 | 3.2 | 0.00 | 0.30 | 0.08 | 80 | 1022.4 |
| 20260504024217 | 23 | 121 | 1.6 | 3.2 | 0.00 | 0.30 | 0.08 | 80 | 1022.5 |
| 20260504024120 | 23 | 121 | 1.6 | 3.2 | 0.00 | 0.30 | 0.08 | 80 | 1022.5 |
| 20260504024021 | 23 | 121 | 0.0 | 3.2 | 0.00 | 0.30 | 0.08 | 80 | 1022.5 |
| 20260504023905 | 23 | 121 | 0.0 | 3.2 | 0.00 | 0.30 | 0.08 | 80 | 1022.4 |
| 20260504023808 | 23 | 121 | 1.6 | 3.2 | 0.00 | 0.30 | 0.08 | 80 | 1022.4 |
| 20260504023710 | 23 | 121 | 1.6 | 3.2 | 0.00 | 0.30 | 0.08 | 80 | 1022.5 |
| 20260504023633 | 23 | 121 | 1.6 | 3.2 | 0.00 | 0.30 | 0.08 | 80 | 1022.5 |
| 20260504023536 | 23 | 121 | 1.6 | 4.8 | 0.00 | 0.30 | 0.08 | 80 | 1022.4 |
| 20260504023403 | 23 | 121 | 0.0 | 9.7 | 0.00 | 0.30 | 0.08 | 79 | 1022.5 |
| 20260504023307 | 23 | 121 | 0.0 | 9.7 | 0.00 | 0.30 | 0.08 | 79 | 1022.6 |
| 20260504023208 | 23 | 121 | 1.6 | 9.7 | 0.00 | 0.30 | 0.08 | 79 | 1022.5 |
| 20260504023109 | 23 | 121 | 1.6 | 11.3 | 0.00 | 0.30 | 0.08 | 79 | 1022.5 |
| 20260504023013 | 23 | 121 | 1.6 | 11.3 | 0.00 | 0.30 | 0.08 | 79 | 1022.6 |
| 20260504022915 | 23 | 121 | 1.6 | 11.3 | 0.00 | 0.30 | 0.08 | 79 | 1022.5 |
| 20260504022817 | 23 | 121 | 3.2 | 11.3 | 0.00 | 0.30 | 0.08 | 79 | 1022.6 |
| 20260504022741 | 23 | 121 | 4.8 | 11.3 | 0.00 | 0.30 | 0.08 | 79 | 1022.6 |
| 20260504022607 | 23 | 121 | 4.8 | 11.3 | 0.00 | 0.30 | 0.08 | 79 | 1022.6 |
| 20260504022530 | 23 | 121 | 6.4 | 11.3 | 0.00 | 0.30 | 0.08 | 79 | 1022.5 |
| 20260504022433 | 23 | 124 | 6.4 | 11.3 | 0.00 | 0.30 | 0.08 | 79 | 1022.5 |
| 20260504022313 | 23 | 127 | 6.4 | 11.3 | 0.00 | 0.30 | 0.08 | 79 | 1022.6 |
| 20260504022216 | 23 | 130 | 6.4 | 11.3 | 0.00 | 0.30 | 0.08 | 79 | 1022.6 |
| 20260504022121 | 23 | 102 | 4.8 | 9.7 | 0.00 | 0.30 | 0.08 | 79 | 1022.6 |
| 20260504022004 | 23 | 94 | 4.8 | 8.0 | 0.00 | 0.30 | 0.08 | 79 | 1022.7 |
| 20260504021911 | 23 | 96 | 4.8 | 8.0 | 0.00 | 0.30 | 0.08 | 79 | 1022.5 |
| 20260504021815 | 23 | 145 | 4.8 | 8.0 | 0.00 | 0.30 | 0.08 | 79 | 1022.4 |
| 20260504021718 | 23 | 140 | 4.8 | 9.7 | 0.00 | 0.30 | 0.08 | 79 | 1022.6 |
| 20260504021621 | 23 | 113 | 3.2 | 9.7 | 0.00 | 0.30 | 0.08 | 79 | 1022.5 |
| 20260504021504 | 23 | 113 | 3.2 | 9.7 | 0.00 | 0.30 | 0.08 | 79 | 1022.5 |
| 20260504021408 | 23 | 113 | 4.8 | 9.7 | 0.00 | 0.30 | 0.08 | 79 | 1022.5 |
| 20260504021310 | 23 | 113 | 4.8 | 9.7 | 0.00 | 0.30 | 0.08 | 79 | 1022.5 |
| 20260504021216 | 23 | 113 | 4.8 | 9.7 | 0.00 | 0.30 | 0.08 | 79 | 1022.5 |
| 20260504021120 | 23 | 122 | 3.2 | 6.4 | 0.00 | 0.30 | 0.08 | 79 | 1022.4 |
| 20260504021023 | 23 | 123 | 3.2 | 6.4 | 0.00 | 0.30 | 0.08 | 79 | 1022.4 |
| 20260504020906 | 23 | 123 | 3.2 | 6.4 | 0.00 | 0.30 | 0.08 | 79 | 1022.4 |
| 20260504020809 | 23 | 122 | 1.6 | 6.4 | 0.00 | 0.30 | 0.08 | 79 | 1022.3 |
| 20260504020712 | 23 | 122 | 1.6 | 6.4 | 0.00 | 0.30 | 0.08 | 79 | 1022.4 |
| 20260504020620 | 23 | 122 | 3.2 | 6.4 | 0.00 | 0.30 | 0.08 | 79 | 1022.4 |
| 20260504020523 | 23 | 122 | 4.8 | 6.4 | 0.00 | 0.30 | 0.08 | 79 | 1022.4 |
| 20260504020406 | 23 | 122 | 4.8 | 6.4 | 0.00 | 0.30 | 0.08 | 79 | 1022.4 |
| 20260504020310 | 23 | 123 | 3.2 | 6.4 | 0.00 | 0.30 | 0.08 | 78 | 1022.4 |
| 20260504020211 | 23 | 123 | 3.2 | 4.8 | 0.00 | 0.30 | 0.08 | 78 | 1022.3 |
| 20260504020112 | 23 | 123 | 3.2 | 4.8 | 0.00 | 0.30 | 0.08 | 78 | 1022.3 |
| 20260504020014 | 23 | 123 | 1.6 | 4.8 | 0.00 | 0.30 | 0.08 | 78 | 1022.4 |
| 20260504015920 | 23 | 123 | 0.0 | 4.8 | 0.00 | 0.30 | 0.08 | 78 | 1022.4 |
| 20260504015843 | 23 | 123 | 1.6 | 4.8 | 0.00 | 0.30 | 0.08 | 78 | 1022.3 |
| 20260504015706 | 23 | 123 | 3.2 | 4.8 | 0.00 | 0.30 | 0.08 | 78 | 1022.3 |
| 20260504015610 | 23 | 123 | 1.6 | 4.8 | 0.00 | 0.30 | 0.08 | 78 | 1022.4 |
| 20260504015513 | 23 | 123 | 1.6 | 6.4 | 0.00 | 0.30 | 0.08 | 78 | 1022.3 |
| 20260504015416 | 23 | 123 | 0.0 | 6.4 | 0.00 | 0.30 | 0.08 | 78 | 1022.4 |
| 20260504015337 | 23 | 123 | 0.0 | 6.4 | 0.00 | 0.30 | 0.08 | 77 | 1022.3 |
| 20260504015238 | 23 | 123 | 0.0 | 6.4 | 0.00 | 0.30 | 0.08 | 77 | 1022.3 |
| 20260504015105 | 23 | 123 | 1.6 | 6.4 | 0.00 | 0.30 | 0.08 | 77 | 1022.3 |
| 20260504015007 | 23 | 123 | 1.6 | 6.4 | 0.00 | 0.30 | 0.08 | 77 | 1022.3 |
| 20260504014910 | 23 | 123 | 3.2 | 6.4 | 0.00 | 0.30 | 0.08 | 77 | 1022.4 |
| 20260504014812 | 23 | 123 | 3.2 | 6.4 | 0.00 | 0.30 | 0.08 | 77 | 1022.3 |
| 20260504014714 | 23 | 123 | 4.8 | 6.4 | 0.00 | 0.30 | 0.08 | 77 | 1022.4 |
| 20260504014636 | 23 | 123 | 3.2 | 6.4 | 0.00 | 0.30 | 0.08 | 77 | 1022.4 |
| 20260504014538 | 23 | 125 | 1.6 | 6.4 | 0.00 | 0.30 | 0.08 | 77 | 1022.5 |
| 20260504014403 | 24 | 142 | 1.6 | 4.8 | 0.00 | 0.30 | 0.08 | 77 | 1022.4 |
| 20260504014307 | 24 | 142 | 1.6 | 8.0 | 0.00 | 0.30 | 0.08 | 77 | 1022.4 |
| 20260504014211 | 24 | 143 | 1.6 | 9.7 | 0.00 | 0.30 | 0.08 | 77 | 1022.4 |
| 20260504014116 | 24 | 148 | 1.6 | 9.7 | 0.00 | 0.30 | 0.08 | 77 | 1022.4 |
| 20260504014019 | 24 | 148 | 1.6 | 9.7 | 0.00 | 0.30 | 0.08 | 76 | 1022.3 |
| 20260504013923 | 24 | 148 | 3.2 | 9.7 | 0.00 | 0.30 | 0.08 | 76 | 1022.4 |
| 20260504013810 | 24 | 148 | 3.2 | 9.7 | 0.00 | 0.30 | 0.08 | 76 | 1022.3 |
| 20260504013714 | 24 | 148 | 3.2 | 11.3 | 0.00 | 0.30 | 0.08 | 76 | 1022.3 |
| 20260504013617 | 24 | 149 | 3.2 | 16.1 | 0.00 | 0.30 | 0.08 | 76 | 1022.3 |
| 20260504013519 | 24 | 149 | 4.8 | 16.1 | 0.00 | 0.30 | 0.08 | 76 | 1022.3 |
| 20260504013442 | 24 | 152 | 3.2 | 16.1 | 0.00 | 0.30 | 0.08 | 76 | 1022.3 |
| 20260504013323 | 24 | 153 | 3.2 | 16.1 | 0.00 | 0.30 | 0.08 | 76 | 1022.2 |
| 20260504013204 | 24 | 90 | 3.2 | 16.1 | 0.00 | 0.30 | 0.08 | 76 | 1022.3 |
| 20260504013109 | 24 | 85 | 3.2 | 16.1 | 0.00 | 0.30 | 0.08 | 76 | 1022.3 |
| 20260504013011 | 24 | 103 | 6.4 | 16.1 | 0.00 | 0.30 | 0.08 | 75 | 1022.3 |
| 20260504012915 | 24 | 103 | 9.7 | 16.1 | 0.00 | 0.30 | 0.08 | 75 | 1022.2 |
| 20260504012818 | 24 | 155 | 11.3 | 16.1 | 0.00 | 0.30 | 0.08 | 76 | 1022.3 |
| 20260504012721 | 24 | 153 | 9.7 | 16.1 | 0.00 | 0.30 | 0.08 | 76 | 1022.3 |
| 20260504012623 | 24 | 117 | 8.0 | 16.1 | 0.00 | 0.30 | 0.08 | 76 | 1022.2 |
| 20260504012509 | 24 | 90 | 6.4 | 16.1 | 0.00 | 0.30 | 0.08 | 76 | 1022.2 |
| 20260504012413 | 25 | 107 | 6.4 | 16.1 | 0.00 | 0.30 | 0.08 | 75 | 1022.2 |
| 20260504012315 | 25 | 139 | 9.7 | 16.1 | 0.00 | 0.30 | 0.08 | 75 | 1022.2 |
| 20260504012238 | 25 | 115 | 9.7 | 16.1 | 0.00 | 0.30 | 0.08 | 75 | 1022.2 |
| 20260504012140 | 25 | 129 | 8.0 | 16.1 | 0.00 | 0.30 | 0.08 | 75 | 1022.2 |
| 20260504012020 | 25 | 121 | 6.4 | 16.1 | 0.00 | 0.30 | 0.08 | 75 | 1022.1 |
| 20260504011922 | 25 | 109 | 8.0 | 16.1 | 0.00 | 0.30 | 0.08 | 75 | 1022.0 |
| 20260504011806 | 25 | 97 | 9.7 | 16.1 | 0.00 | 0.30 | 0.08 | 75 | 1021.9 |
| 20260504011729 | 25 | 112 | 8.0 | 16.1 | 0.00 | 0.30 | 0.08 | 75 | 1021.9 |
| 20260504011635 | 25 | 106 | 8.0 | 14.5 | 0.00 | 0.30 | 0.08 | 75 | 1021.8 |
| 20260504011516 | 24 | 105 | 8.0 | 12.9 | 0.00 | 0.30 | 0.08 | 75 | 1021.7 |
| 20260504011419 | 24 | 117 | 8.0 | 12.9 | 0.00 | 0.30 | 0.08 | 76 | 1021.8 |
| 20260504011322 | 24 | 113 | 8.0 | 12.9 | 0.00 | 0.30 | 0.08 | 76 | 1021.7 |
| 20260504011205 | 24 | 113 | 8.0 | 12.9 | 0.00 | 0.30 | 0.08 | 76 | 1021.7 |
| 20260504011108 | 24 | 107 | 8.0 | 12.9 | 0.00 | 0.30 | 0.08 | 77 | 1021.7 |
| 20260504011010 | 24 | 109 | 8.0 | 12.9 | 0.00 | 0.30 | 0.08 | 77 | 1021.7 |
| 20260504010917 | 24 | 105 | 6.4 | 11.3 | 0.00 | 0.30 | 0.08 | 78 | 1021.7 |
| 20260504010841 | 23 | 128 | 6.4 | 11.3 | 0.00 | 0.30 | 0.08 | 78 | 1021.7 |
| 20260504010743 | 23 | 149 | 4.8 | 9.7 | 0.00 | 0.30 | 0.08 | 78 | 1021.7 |
| 20260504010606 | 23 | 175 | 3.2 | 6.4 | 0.00 | 0.30 | 0.08 | 78 | 1021.7 |
| 20260504010509 | 23 | 175 | 3.2 | 6.4 | 0.00 | 0.30 | 0.08 | 79 | 1021.7 |
| 20260504010412 | 23 | 175 | 1.6 | 6.4 | 0.00 | 0.30 | 0.08 | 79 | 1021.6 |
| 20260504010316 | 23 | 205 | 1.6 | 4.8 | 0.00 | 0.30 | 0.08 | 80 | 1021.7 |
| 20260504010222 | 23 | 205 | 1.6 | 4.8 | 0.00 | 0.30 | 0.08 | 80 | 1021.4 |
| 20260504010105 | 23 | 205 | 3.2 | 4.8 | 0.00 | 0.30 | 0.08 | 80 | 1021.6 |
| 20260504010009 | 23 | 205 | 1.6 | 4.8 | 0.00 | 0.30 | 0.08 | 80 | 1021.4 |
| 20260504005913 | 23 | 206 | 1.6 | 4.8 | 0.00 | 0.30 | 0.08 | 80 | 1021.5 |
| 20260504005815 | 23 | 206 | 1.6 | 4.8 | 0.00 | 0.30 | 0.08 | 80 | 1021.5 |
| 20260504005717 | 23 | 206 | 1.6 | 4.8 | 0.00 | 0.30 | 0.08 | 80 | 1021.4 |
| 20260504005620 | 23 | 206 | 0.0 | 4.8 | 0.00 | 0.30 | 0.08 | 81 | 1021.4 |
| 20260504005528 | 23 | 207 | 1.6 | 4.8 | 0.00 | 0.30 | 0.08 | 81 | 1021.3 |
| 20260504005429 | 23 | 207 | 3.2 | 4.8 | 0.00 | 0.30 | 0.08 | 81 | 1021.2 |
| 20260504005332 | 23 | 207 | 3.2 | 4.8 | 0.00 | 0.30 | 0.08 | 81 | 1021.3 |
| 20260504005214 | 23 | 207 | 1.6 | 4.8 | 0.00 | 0.30 | 0.08 | 81 | 1021.3 |
| 20260504005115 | 23 | 207 | 0.0 | 3.2 | 0.00 | 0.30 | 0.08 | 81 | 1021.3 |
| 20260504005019 | 23 | 208 | 0.0 | 0.0 | 0.00 | 0.30 | 0.08 | 81 | 1021.3 |
| 20260504004923 | 23 | 208 | 0.0 | 0.0 | 0.00 | 0.30 | 0.08 | 81 | 1021.2 |
| 20260504004805 | 23 | 208 | 0.0 | 0.0 | 0.00 | 0.30 | 0.08 | 81 | 1021.2 |
| 20260504004712 | 23 | 208 | 0.0 | 0.0 | 0.00 | 0.30 | 0.08 | 81 | 1021.2 |
| 20260504004615 | 23 | 208 | 0.0 | 0.0 | 0.00 | 0.30 | 0.08 | 81 | 1021.2 |
| 20260504004537 | 23 | 208 | 0.0 | 0.0 | 0.00 | 0.30 | 0.08 | 81 | 1021.2 |
| 20260504004419 | 23 | 208 | 0.0 | 0.0 | 0.00 | 0.30 | 0.08 | 81 | 1021.1 |
| 20260504004322 | 23 | 208 | 0.0 | 0.0 | 0.00 | 0.30 | 0.08 | 81 | 1021.1 |
| 20260504004205 | 23 | 208 | 0.0 | 0.0 | 0.00 | 0.30 | 0.08 | 81 | 1020.9 |
| 20260504004108 | 23 | 208 | 0.0 | 0.0 | 0.00 | 0.30 | 0.08 | 81 | 1020.9 |
| 20260504004015 | 23 | 208 | 0.0 | 0.0 | 0.00 | 0.30 | 0.08 | 81 | 1020.9 |
| 20260504003920 | 23 | 208 | 0.0 | 0.0 | 0.00 | 0.30 | 0.08 | 81 | 1020.9 |
| 20260504003842 | 23 | 208 | 0.0 | 3.2 | 0.00 | 0.30 | 0.08 | 81 | 1020.9 |
| 20260504003743 | 23 | 208 | 0.0 | 4.8 | 0.00 | 0.30 | 0.08 | 81 | 1020.8 |
| 20260504003604 | 23 | 208 | 0.0 | 6.4 | 0.00 | 0.30 | 0.08 | 81 | 1020.8 |
| 20260504003506 | 23 | 208 | 0.0 | 6.4 | 0.00 | 0.30 | 0.08 | 81 | 1020.7 |
| 20260504003408 | 23 | 283 | 0.0 | 6.4 | 0.00 | 0.30 | 0.08 | 81 | 1020.7 |
| 20260504003310 | 23 | 283 | 0.0 | 6.4 | 0.00 | 0.30 | 0.08 | 81 | 1020.7 |
| 20260504003217 | 23 | 283 | 0.0 | 6.4 | 0.00 | 0.30 | 0.08 | 81 | 1020.5 |
| 20260504003120 | 23 | 283 | 0.0 | 6.4 | 0.00 | 0.30 | 0.08 | 81 | 1020.5 |
| 20260504003023 | 23 | 283 | 1.6 | 6.4 | 0.00 | 0.30 | 0.08 | 81 | 1020.5 |
| 20260504002926 | 23 | 283 | 3.2 | 6.4 | 0.00 | 0.30 | 0.08 | 81 | 1020.5 |
| 20260504002806 | 23 | 282 | 3.2 | 6.4 | 0.00 | 0.30 | 0.08 | 81 | 1020.5 |
| 20260504002708 | 23 | 278 | 4.8 | 6.4 | 0.00 | 0.30 | 0.08 | 81 | 1020.5 |
| 20260504002608 | 23 | 281 | 4.8 | 6.4 | 0.00 | 0.30 | 0.08 | 81 | 1020.5 |
| 20260504002510 | 23 | 275 | 3.2 | 6.4 | 0.00 | 0.30 | 0.08 | 81 | 1020.5 |
| 20260504002418 | 23 | 114 | 1.6 | 4.8 | 0.00 | 0.30 | 0.08 | 81 | 1020.4 |
| 20260504002304 | 23 | 113 | 0.0 | 1.6 | 0.00 | 0.30 | 0.08 | 81 | 1020.4 |
| 20260504002205 | 23 | 113 | 0.0 | 0.0 | 0.00 | 0.30 | 0.08 | 81 | 1020.5 |
| 20260504002107 | 23 | 113 | 0.0 | 0.0 | 0.00 | 0.30 | 0.08 | 81 | 1020.5 |
| 20260504002010 | 23 | 114 | 0.0 | 1.6 | 0.00 | 0.30 | 0.08 | 81 | 1020.3 |
| 20260504001912 | 23 | 114 | 0.0 | 3.2 | 0.00 | 0.30 | 0.08 | 81 | 1020.4 |
| 20260504001816 | 23 | 114 | 0.0 | 3.2 | 0.00 | 0.30 | 0.08 | 81 | 1020.4 |
| 20260504001704 | 23 | 114 | 0.0 | 3.2 | 0.00 | 0.30 | 0.08 | 81 | 1020.5 |
| 20260504001608 | 23 | 114 | 0.0 | 4.8 | 0.00 | 0.30 | 0.08 | 81 | 1020.5 |
| 20260504001509 | 23 | 114 | 0.0 | 4.8 | 0.00 | 0.30 | 0.08 | 81 | 1020.4 |
| 20260504001412 | 23 | 114 | 0.0 | 4.8 | 0.00 | 0.30 | 0.08 | 81 | 1020.5 |
| 20260504001314 | 23 | 114 | 0.0 | 4.8 | 0.00 | 0.30 | 0.08 | 81 | 1020.4 |
| 20260504001218 | 23 | 114 | 0.0 | 4.8 | 0.00 | 0.30 | 0.08 | 81 | 1020.4 |
| 20260504001106 | 23 | 114 | 1.6 | 4.8 | 0.00 | 0.30 | 0.08 | 80 | 1020.4 |
| 20260504001009 | 23 | 114 | 1.6 | 4.8 | 0.00 | 0.30 | 0.08 | 80 | 1020.4 |
| 20260504000913 | 23 | 114 | 3.2 | 4.8 | 0.00 | 0.30 | 0.08 | 80 | 1020.3 |
| 20260504000817 | 23 | 114 | 3.2 | 4.8 | 0.00 | 0.30 | 0.08 | 80 | 1020.3 |
| 20260504000719 | 23 | 114 | 1.6 | 4.8 | 0.00 | 0.30 | 0.08 | 80 | 1020.3 |
| 20260504000624 | 23 | 114 | 1.6 | 4.8 | 0.00 | 0.30 | 0.08 | 80 | 1020.4 |
| 20260504000510 | 23 | 114 | 1.6 | 4.8 | 0.00 | 0.30 | 0.08 | 80 | 1020.4 |
| 20260504000416 | 23 | 113 | 1.6 | 4.8 | 0.00 | 0.30 | 0.08 | 80 | 1020.4 |
| 20260504000318 | 23 | 113 | 1.6 | 4.8 | 0.00 | 0.30 | 0.08 | 79 | 1020.4 |
| 20260504000222 | 23 | 114 | 1.6 | 4.8 | 0.00 | 0.30 | 0.08 | 79 | 1020.5 |
| 20260504000105 | 23 | 114 | 1.6 | 4.8 | 0.00 | 0.30 | 0.08 | 79 | 1020.5 |
| 20260504000009 | 23 | 114 | 3.2 | 4.8 | 0.00 | 0.30 | 0.08 | 79 | 1020.5 |
| 20260503235917 | 23 | 114 | 3.2 | 4.8 | 0.00 | 0.30 | 0.08 | 79 | 1020.5 |
| 20260503235840 | 23 | 114 | 3.2 | 4.8 | 0.00 | 0.30 | 0.08 | 79 | 1020.5 |
| 20260503235742 | 23 | 114 | 1.6 | 4.8 | 0.00 | 0.30 | 0.08 | 79 | 1020.5 |
| 20260503235624 | 23 | 114 | 0.0 | 4.8 | 0.00 | 0.30 | 0.08 | 79 | 1020.5 |
| 20260503235507 | 23 | 114 | 1.6 | 4.8 | 0.00 | 0.30 | 0.08 | 79 | 1020.5 |
| 20260503235410 | 23 | 114 | 1.6 | 4.8 | 0.00 | 0.30 | 0.08 | 79 | 1020.5 |
| 20260503235314 | 23 | 114 | 3.2 | 4.8 | 0.00 | 0.30 | 0.08 | 79 | 1020.5 |
| 20260503235217 | 23 | 114 | 1.6 | 4.8 | 0.00 | 0.30 | 0.08 | 79 | 1020.5 |
| 20260503235104 | 23 | 114 | 0.0 | 3.2 | 0.00 | 0.30 | 0.08 | 78 | 1020.6 |
| 20260503235007 | 23 | 114 | 0.0 | 3.2 | 0.00 | 0.30 | 0.08 | 78 | 1020.7 |
| 20260503234910 | 23 | 114 | 0.0 | 3.2 | 0.00 | 0.30 | 0.08 | 78 | 1020.8 |
| 20260503234813 | 23 | 114 | 0.0 | 3.2 | 0.00 | 0.30 | 0.08 | 78 | 1020.7 |
| 20260503234717 | 23 | 114 | 1.6 | 3.2 | 0.00 | 0.30 | 0.08 | 78 | 1020.8 |
| 20260503234620 | 23 | 114 | 1.6 | 3.2 | 0.00 | 0.30 | 0.08 | 78 | 1020.7 |
| 20260503234507 | 23 | 114 | 3.2 | 3.2 | 0.00 | 0.30 | 0.08 | 78 | 1020.8 |
| 20260503234411 | 24 | 115 | 3.2 | 3.2 | 0.00 | 0.30 | 0.08 | 78 | 1020.9 |
| 20260503234315 | 24 | 113 | 3.2 | 3.2 | 0.00 | 0.30 | 0.08 | 78 | 1020.9 |
| 20260503234219 | 24 | 113 | 1.6 | 3.2 | 0.00 | 0.30 | 0.08 | 78 | 1020.9 |
| 20260503234122 | 24 | 113 | 1.6 | 3.2 | 0.00 | 0.30 | 0.08 | 78 | 1021.0 |
| 20260503234005 | 24 | 113 | 0.0 | 3.2 | 0.00 | 0.30 | 0.08 | 78 | 1021.0 |
| 20260503233907 | 24 | 113 | 0.0 | 3.2 | 0.00 | 0.30 | 0.08 | 78 | 1021.0 |
| 20260503233813 | 24 | 113 | 0.0 | 4.8 | 0.00 | 0.30 | 0.08 | 78 | 1020.9 |
| 20260503233737 | 24 | 113 | 0.0 | 4.8 | 0.00 | 0.30 | 0.08 | 78 | 1020.9 |
| 20260503233639 | 24 | 113 | 0.0 | 9.7 | 0.00 | 0.30 | 0.08 | 78 | 1021.0 |
| 20260503233541 | 23 | 113 | 1.6 | 11.3 | 0.00 | 0.30 | 0.08 | 78 | 1020.9 |
| 20260503233404 | 23 | 113 | 0.0 | 11.3 | 0.00 | 0.30 | 0.08 | 79 | 1021.0 |
| 20260503233307 | 23 | 113 | 0.0 | 11.3 | 0.00 | 0.30 | 0.08 | 78 | 1020.9 |
| 20260503233211 | 23 | 113 | 0.0 | 11.3 | 0.00 | 0.30 | 0.08 | 79 | 1021.1 |
| 20260503233113 | 23 | 103 | 1.6 | 11.3 | 0.00 | 0.30 | 0.08 | 79 | 1021.1 |
| 20260503233021 | 23 | 103 | 3.2 | 11.3 | 0.00 | 0.30 | 0.08 | 79 | 1021.1 |
| 20260503232904 | 23 | 103 | 4.8 | 11.3 | 0.00 | 0.30 | 0.08 | 80 | 1021.4 |
| 20260503232808 | 23 | 103 | 6.4 | 11.3 | 0.00 | 0.30 | 0.08 | 80 | 1021.2 |
| 20260503232731 | 23 | 103 | 6.4 | 11.3 | 0.00 | 0.30 | 0.08 | 80 | 1021.3 |
| 20260503232633 | 23 | 100 | 8.0 | 11.3 | 0.00 | 0.30 | 0.08 | 80 | 1021.3 |
| 20260503232514 | 23 | 94 | 6.4 | 11.3 | 0.00 | 0.30 | 0.08 | 81 | 1021.3 |
| 20260503232416 | 23 | 78 | 4.8 | 9.7 | 0.00 | 0.30 | 0.08 | 81 | 1021.3 |
| 20260503232318 | 23 | 90 | 4.8 | 9.7 | 0.00 | 0.30 | 0.08 | 81 | 1021.3 |
| 20260503232205 | 23 | 95 | 4.8 | 9.7 | 0.00 | 0.30 | 0.08 | 81 | 1021.3 |
| 20260503232108 | 23 | 92 | 6.4 | 9.7 | 0.00 | 0.30 | 0.08 | 82 | 1021.2 |
| 20260503232011 | 23 | 94 | 4.8 | 9.7 | 0.00 | 0.30 | 0.08 | 82 | 1021.3 |
| 20260503231914 | 23 | 110 | 4.8 | 6.4 | 0.00 | 0.30 | 0.08 | 82 | 1021.2 |
| 20260503231818 | 23 | 111 | 4.8 | 6.4 | 0.00 | 0.30 | 0.08 | 82 | 1021.1 |
| 20260503231704 | 23 | 164 | 1.6 | 4.8 | 0.00 | 0.30 | 0.08 | 82 | 1021.0 |
| 20260503231605 | 23 | 167 | 0.0 | 4.8 | 0.00 | 0.30 | 0.08 | 82 | 1020.9 |
| 20260503231507 | 23 | 167 | 1.6 | 4.8 | 0.00 | 0.30 | 0.08 | 82 | 1020.9 |
| 20260503231411 | 23 | 168 | 3.2 | 4.8 | 0.00 | 0.30 | 0.08 | 82 | 1020.9 |
| 20260503231314 | 23 | 168 | 3.2 | 8.0 | 0.00 | 0.30 | 0.08 | 82 | 1021.0 |
| 20260503231217 | 23 | 168 | 3.2 | 8.0 | 0.00 | 0.30 | 0.08 | 82 | 1020.8 |
| 20260503231118 | 22 | 168 | 1.6 | 8.0 | 0.00 | 0.30 | 0.08 | 82 | 1020.8 |
| 20260503231020 | 22 | 167 | 0.0 | 8.0 | 0.00 | 0.30 | 0.08 | 82 | 1020.9 |
| 20260503230907 | 22 | 167 | 0.0 | 8.0 | 0.00 | 0.30 | 0.08 | 82 | 1020.9 |
| 20260503230808 | 22 | 167 | 0.0 | 8.0 | 0.00 | 0.30 | 0.08 | 82 | 1020.9 |
| 20260503230711 | 22 | 167 | 1.6 | 8.0 | 0.00 | 0.30 | 0.08 | 82 | 1020.8 |
| 20260503230611 | 22 | 167 | 3.2 | 8.0 | 0.00 | 0.30 | 0.08 | 82 | 1020.8 |
| 20260503230513 | 22 | 167 | 3.2 | 8.0 | 0.00 | 0.30 | 0.08 | 82 | 1020.8 |
| 20260503230415 | 22 | 167 | 1.6 | 8.0 | 0.00 | 0.30 | 0.08 | 82 | 1020.7 |
| 20260503230318 | 22 | 234 | 0.0 | 3.2 | 0.00 | 0.30 | 0.08 | 82 | 1020.7 |
| 20260503230204 | 22 | 234 | 0.0 | 3.2 | 0.00 | 0.30 | 0.08 | 82 | 1020.7 |
| 20260503230106 | 22 | 234 | 0.0 | 3.2 | 0.00 | 0.30 | 0.08 | 82 | 1020.7 |
| 20260503230009 | 22 | 234 | 0.0 | 3.2 | 0.00 | 0.30 | 0.08 | 82 | 1020.6 |
| 20260503225913 | 22 | 234 | 0.0 | 3.2 | 0.00 | 0.30 | 0.08 | 82 | 1020.5 |
| 20260503225816 | 22 | 234 | 0.0 | 3.2 | 0.00 | 0.30 | 0.08 | 82 | 1020.4 |
| 20260503225717 | 22 | 234 | 0.0 | 3.2 | 0.00 | 0.30 | 0.08 | 82 | 1020.4 |
| 20260503225621 | 22 | 234 | 0.0 | 3.2 | 0.00 | 0.30 | 0.08 | 82 | 1020.5 |
| 20260503225510 | 22 | 234 | 1.6 | 4.8 | 0.10 | 0.30 | 0.08 | 82 | 1020.4 |
| 20260503225413 | 22 | 234 | 1.6 | 4.8 | 0.10 | 0.30 | 0.08 | 82 | 1020.5 |
| 20260503225316 | 22 | 234 | 1.6 | 4.8 | 0.10 | 0.30 | 0.08 | 82 | 1020.5 |
| 20260503225219 | 22 | 234 | 1.6 | 4.8 | 0.10 | 0.30 | 0.08 | 82 | 1020.4 |
| 20260503225120 | 22 | 234 | 0.0 | 4.8 | 0.10 | 0.30 | 0.08 | 82 | 1020.4 |
| 20260503225004 | 22 | 234 | 0.0 | 4.8 | 0.10 | 0.30 | 0.08 | 82 | 1020.3 |
| 20260503224911 | 22 | 234 | 1.6 | 4.8 | 0.10 | 0.30 | 0.08 | 82 | 1020.4 |
| 20260503224814 | 22 | 234 | 3.2 | 4.8 | 0.10 | 0.30 | 0.08 | 82 | 1020.2 |
| 20260503224718 | 22 | 234 | 3.2 | 4.8 | 0.10 | 0.30 | 0.08 | 82 | 1020.2 |
| 20260503224621 | 22 | 234 | 3.2 | 4.8 | 0.10 | 0.30 | 0.08 | 82 | 1020.1 |
| 20260503224505 | 22 | 234 | 1.6 | 4.8 | 0.20 | 0.30 | 0.08 | 82 | 1020.3 |
| 20260503224408 | 22 | 234 | 1.6 | 4.8 | 0.20 | 0.30 | 0.08 | 82 | 1020.3 |
| 20260503224309 | 22 | 234 | 3.2 | 4.8 | 0.20 | 0.30 | 0.08 | 82 | 1020.4 |
| 20260503224215 | 22 | 234 | 1.6 | 4.8 | 0.30 | 0.30 | 0.08 | 82 | 1020.3 |
| 20260503224118 | 22 | 234 | 0.0 | 4.8 | 0.30 | 0.30 | 0.08 | 82 | 1020.3 |
| 20260503224019 | 22 | 234 | 0.0 | 4.8 | 0.30 | 0.30 | 0.08 | 82 | 1020.3 |
| 20260503223922 | 22 | 234 | 0.0 | 4.8 | 0.30 | 0.30 | 0.08 | 82 | 1020.4 |
| 20260503223806 | 22 | 234 | 1.6 | 4.8 | 0.30 | 0.30 | 0.08 | 81 | 1020.3 |
| 20260503223708 | 22 | 234 | 1.6 | 4.8 | 0.30 | 0.30 | 0.08 | 82 | 1020.3 |
| 20260503223616 | 22 | 234 | 1.6 | 4.8 | 0.30 | 0.30 | 0.08 | 82 | 1020.3 |
| 20260503223539 | 22 | 234 | 1.6 | 4.8 | 0.30 | 0.30 | 0.08 | 81 | 1020.3 |
| 20260503223419 | 22 | 234 | 1.6 | 4.8 | 0.30 | 0.30 | 0.08 | 81 | 1020.4 |
| 20260503223322 | 22 | 234 | 1.6 | 4.8 | 0.30 | 0.30 | 0.08 | 81 | 1020.3 |
| 20260503223206 | 22 | 234 | 1.6 | 6.4 | 0.30 | 0.30 | 0.08 | 81 | 1020.3 |
| 20260503223109 | 22 | 232 | 1.6 | 6.4 | 0.30 | 0.30 | 0.08 | 81 | 1020.3 |
| 20260503223017 | 22 | 232 | 1.6 | 9.7 | 0.30 | 0.30 | 0.08 | 81 | 1020.3 |
| 20260503222920 | 22 | 232 | 1.6 | 9.7 | 0.30 | 0.30 | 0.08 | 81 | 1020.3 |
| 20260503222804 | 22 | 232 | 3.2 | 9.7 | 0.30 | 0.30 | 0.08 | 81 | 1020.2 |
| 20260503222708 | 22 | 232 | 3.2 | 9.7 | 0.30 | 0.30 | 0.08 | 81 | 1020.3 |
| 20260503222612 | 22 | 233 | 3.2 | 9.7 | 0.30 | 0.30 | 0.08 | 81 | 1020.3 |
| 20260503222535 | 22 | 232 | 3.2 | 9.7 | 0.30 | 0.30 | 0.08 | 81 | 1020.3 |
| 20260503222418 | 22 | 231 | 1.6 | 9.7 | 0.30 | 0.30 | 0.08 | 81 | 1020.3 |
| 20260503222305 | 22 | 229 | 1.6 | 9.7 | 0.30 | 0.30 | 0.08 | 81 | 1020.3 |
| 20260503222207 | 22 | 231 | 3.2 | 9.7 | 0.30 | 0.30 | 0.08 | 81 | 1020.3 |
| 20260503222110 | 22 | 232 | 3.2 | 9.7 | 0.30 | 0.30 | 0.08 | 81 | 1020.3 |
| 20260503222012 | 22 | 197 | 3.2 | 9.7 | 0.30 | 0.30 | 0.08 | 80 | 1020.3 |
| 20260503221915 | 22 | 197 | 3.2 | 11.3 | 0.30 | 0.30 | 0.08 | 80 | 1020.3 |
| 20260503221819 | 22 | 264 | 3.2 | 11.3 | 0.30 | 0.30 | 0.08 | 80 | 1020.4 |
| 20260503221721 | 22 | 239 | 3.2 | 12.9 | 0.30 | 0.30 | 0.08 | 80 | 1020.4 |
| 20260503221609 | 22 | 242 | 3.2 | 14.5 | 0.30 | 0.30 | 0.08 | 80 | 1020.4 |
| 20260503221511 | 22 | 244 | 4.8 | 14.5 | 0.30 | 0.30 | 0.08 | 80 | 1020.3 |
| 20260503221414 | 22 | 244 | 4.8 | 14.5 | 0.30 | 0.30 | 0.08 | 80 | 1020.4 |
| 20260503221316 | 22 | 244 | 4.8 | 14.5 | 0.30 | 0.30 | 0.08 | 80 | 1020.3 |
| 20260503221220 | 22 | 241 | 4.8 | 14.5 | 0.30 | 0.30 | 0.08 | 79 | 1020.3 |
| 20260503221103 | 22 | 254 | 6.4 | 14.5 | 0.30 | 0.30 | 0.08 | 79 | 1020.3 |
| 20260503221007 | 22 | 238 | 6.4 | 14.5 | 0.30 | 0.30 | 0.08 | 79 | 1020.1 |
| 20260503220914 | 22 | 221 | 8.0 | 14.5 | 0.30 | 0.30 | 0.08 | 79 | 1020.3 |
| 20260503220817 | 22 | 254 | 8.0 | 14.5 | 0.30 | 0.30 | 0.08 | 79 | 1020.1 |
| 20260503220720 | 22 | 272 | 6.4 | 12.9 | 0.30 | 0.30 | 0.08 | 79 | 1020.2 |
| 20260503220604 | 22 | 267 | 4.8 | 12.9 | 0.30 | 0.30 | 0.08 | 79 | 1020.2 |
| 20260503220507 | 22 | 238 | 4.8 | 16.1 | 0.30 | 0.30 | 0.08 | 79 | 1020.1 |
| 20260503220411 | 22 | 207 | 4.8 | 16.1 | 0.30 | 0.30 | 0.08 | 78 | 1020.2 |
| 20260503220319 | 22 | 222 | 4.8 | 16.1 | 0.30 | 0.30 | 0.08 | 78 | 1020.2 |
| 20260503220243 | 23 | 238 | 4.8 | 16.1 | 0.30 | 0.30 | 0.08 | 78 | 1020.3 |
| 20260503220144 | 23 | 274 | 6.4 | 16.1 | 0.30 | 0.30 | 0.08 | 78 | 1020.3 |
| 20260503220026 | 23 | 252 | 6.4 | 16.1 | 0.30 | 0.30 | 0.08 | 77 | 1020.2 |
| 20260503215908 | 23 | 250 | 6.4 | 16.1 | 0.30 | 0.30 | 0.08 | 77 | 1020.2 |
| 20260503215811 | 23 | 262 | 9.7 | 16.1 | 0.30 | 0.30 | 0.08 | 76 | 1020.3 |
| 20260503215715 | 23 | 265 | 11.3 | 19.3 | 0.30 | 0.30 | 0.08 | 76 | 1020.3 |
| 20260503215623 | 23 | 269 | 9.7 | 25.7 | 0.30 | 0.30 | 0.08 | 76 | 1020.2 |
| 20260503215506 | 23 | 279 | 8.0 | 25.7 | 0.20 | 0.20 | 0.05 | 75 | 1020.2 |
| 20260503215410 | 24 | 269 | 9.7 | 25.7 | 0.20 | 0.20 | 0.05 | 74 | 1020.1 |
| 20260503215314 | 24 | 283 | 9.7 | 25.7 | 0.20 | 0.20 | 0.05 | 74 | 1020.1 |
| 20260503215217 | 24 | 286 | 8.0 | 25.7 | 0.20 | 0.20 | 0.05 | 73 | 1020.0 |
| 20260503215120 | 25 | 270 | 11.3 | 25.7 | 0.20 | 0.20 | 0.05 | 73 | 1020.0 |
| 20260503215008 | 25 | 275 | 9.7 | 25.7 | 0.20 | 0.20 | 0.05 | 72 | 1020.1 |
| 20260503214910 | 25 | 271 | 11.3 | 25.7 | 0.20 | 0.20 | 0.05 | 72 | 1020.0 |
| 20260503214812 | 26 | 312 | 11.3 | 25.7 | 0.20 | 0.20 | 0.05 | 71 | 1020.0 |
| 20260503214716 | 26 | 291 | 9.7 | 22.5 | 0.20 | 0.20 | 0.05 | 70 | 1020.1 |
| 20260503214617 | 26 | 278 | 8.0 | 17.7 | 0.10 | 0.10 | 0.03 | 69 | 1020.0 |
| 20260503214520 | 26 | 277 | 6.4 | 17.7 | 0.10 | 0.10 | 0.03 | 69 | 1019.9 |
| 20260503214442 | 27 | 44 | 6.4 | 17.7 | 0.10 | 0.10 | 0.03 | 71 | 1019.9 |
| 20260503214303 | 27 | 315 | 4.8 | 17.7 | 0.00 | 0.00 | 0.00 | 70 | 1020.0 |
| 20260503214209 | 27 | 59 | 4.8 | 17.7 | 0.00 | 0.00 | 0.00 | 70 | 1019.9 |
| 20260503213944 | 27 | 99 | 6.4 | 17.7 | 0.00 | 0.00 | 0.00 | 70 | 1020.1 |
| 20260503213803 | 27 | 161 | 3.2 | 9.7 | 0.00 | 0.00 | 0.00 | 70 | 1020.0 |
| 20260503213707 | 27 | 158 | 4.8 | 12.9 | 0.00 | 0.00 | 0.00 | 70 | 1020.3 |
| 20260503213611 | 27 | 109 | 4.8 | 14.5 | 0.00 | 0.00 | 0.00 | 70 | 1020.1 |
| 20260503213514 | 27 | 148 | 4.8 | 14.5 | 0.00 | 0.00 | 0.00 | 69 | 1020.3 |
| 20260503213421 | 27 | 46 | 4.8 | 14.5 | 0.00 | 0.00 | 0.00 | 69 | 1020.2 |
| 20260503213305 | 27 | 69 | 3.2 | 14.5 | 0.00 | 0.00 | 0.00 | 69 | 1020.2 |
| 20260503213229 | 27 | 89 | 3.2 | 14.5 | 0.00 | 0.00 | 0.00 | 69 | 1020.3 |
| 20260503213131 | 27 | 90 | 1.6 | 14.5 | 0.00 | 0.00 | 0.00 | 69 | 1020.2 |
| 20260503213012 | 27 | 61 | 1.6 | 14.5 | 0.00 | 0.00 | 0.00 | 69 | 1020.2 |
| 20260503212915 | 27 | 61 | 4.8 | 14.5 | 0.00 | 0.00 | 0.00 | 69 | 1020.2 |
| 20260503212819 | 27 | 61 | 8.0 | 14.5 | 0.00 | 0.00 | 0.00 | 69 | 1020.1 |
| 20260503212727 | 27 | 117 | 6.4 | 16.1 | 0.00 | 0.00 | 0.00 | 70 | 1020.1 |
| 20260503212610 | 27 | 132 | 4.8 | 16.1 | 0.00 | 0.00 | 0.00 | 70 | 1020.1 |
| 20260503212514 | 27 | 99 | 3.2 | 16.1 | 0.00 | 0.00 | 0.00 | 70 | 1020.0 |
| 20260503212417 | 27 | 36 | 4.8 | 16.1 | 0.00 | 0.00 | 0.00 | 70 | 1019.8 |
| 20260503212320 | 27 | 355 | 4.8 | 16.1 | 0.00 | 0.00 | 0.00 | 70 | 1019.8 |
| 20260503212222 | 27 | 336 | 4.8 | 16.1 | 0.00 | 0.00 | 0.00 | 70 | 1019.6 |
| 20260503212144 | 27 | 196 | 4.8 | 20.9 | 0.00 | 0.00 | 0.00 | 70 | 1019.5 |
| 20260503212011 | 27 | 211 | 6.4 | 20.9 | 0.00 | 0.00 | 0.00 | 70 | 1019.5 |
| 20260503211915 | 27 | 200 | 4.8 | 20.9 | 0.00 | 0.00 | 0.00 | 70 | 1019.5 |
| 20260503211816 | 28 | 213 | 4.8 | 20.9 | 0.00 | 0.00 | 0.00 | 69 | 1019.6 |
| 20260503211719 | 28 | 232 | 4.8 | 20.9 | 0.00 | 0.00 | 0.00 | 69 | 1019.6 |
| 20260503211623 | 28 | 172 | 6.4 | 20.9 | 0.00 | 0.00 | 0.00 | 69 | 1019.6 |
| 20260503211505 | 28 | 224 | 6.4 | 20.9 | 0.00 | 0.00 | 0.00 | 69 | 1019.7 |
| 20260503211408 | 28 | 92 | 6.4 | 20.9 | 0.00 | 0.00 | 0.00 | 69 | 1019.8 |
| 20260503211314 | 28 | 199 | 8.0 | 20.9 | 0.00 | 0.00 | 0.00 | 69 | 1019.8 |
| 20260503211218 | 28 | 159 | 8.0 | 19.3 | 0.00 | 0.00 | 0.00 | 68 | 1019.8 |
| 20260503211142 | 28 | 233 | 8.0 | 19.3 | 0.00 | 0.00 | 0.00 | 68 | 1019.6 |
| 20260503211023 | 28 | 162 | 6.4 | 16.1 | 0.00 | 0.00 | 0.00 | 68 | 1019.7 |
| 20260503210907 | 28 | 210 | 6.4 | 12.9 | 0.00 | 0.00 | 0.00 | 68 | 1019.5 |
| 20260503210809 | 28 | 209 | 6.4 | 12.9 | 0.00 | 0.00 | 0.00 | 67 | 1019.6 |
| 20260503210713 | 29 | 244 | 4.8 | 12.9 | 0.00 | 0.00 | 0.00 | 67 | 1019.6 |
| 20260503210619 | 29 | 208 | 3.2 | 11.3 | 0.00 | 0.00 | 0.00 | 67 | 1019.7 |
| 20260503210522 | 29 | 172 | 1.6 | 11.3 | 0.00 | 0.00 | 0.00 | 67 | 1019.6 |
| 20260503210405 | 29 | 233 | 4.8 | 11.3 | 0.00 | 0.00 | 0.00 | 67 | 1019.7 |
| 20260503210309 | 29 | 234 | 4.8 | 11.3 | 0.00 | 0.00 | 0.00 | 67 | 1019.8 |
| 20260503210213 | 29 | 313 | 3.2 | 11.3 | 0.00 | 0.00 | 0.00 | 67 | 1019.8 |
| 20260503210116 | 30 | 182 | 4.8 | 12.9 | 0.00 | 0.00 | 0.00 | 66 | 1019.9 |
| 20260503210038 | 30 | 176 | 4.8 | 12.9 | 0.00 | 0.00 | 0.00 | 67 | 1019.9 |
| 20260503205940 | 30 | 143 | 4.8 | 12.9 | 0.00 | 0.00 | 0.00 | 66 | 1019.9 |
| 20260503205807 | 30 | 200 | 4.8 | 22.5 | 0.00 | 0.00 | 0.00 | 66 | 1019.8 |
| 20260503205710 | 30 | 119 | 4.8 | 22.5 | 0.00 | 0.00 | 0.00 | 66 | 1020.0 |
| 20260503205614 | 30 | 103 | 4.8 | 22.5 | 0.00 | 0.00 | 0.00 | 66 | 1019.9 |
| 20260503205536 | 30 | 220 | 6.4 | 22.5 | 0.00 | 0.00 | 0.00 | 66 | 1019.9 |
| 20260503205415 | 30 | 133 | 4.8 | 22.5 | 0.00 | 0.00 | 0.00 | 66 | 1019.9 |
| 20260503205318 | 30 | 310 | 4.8 | 22.5 | 0.00 | 0.00 | 0.00 | 66 | 1020.0 |
| 20260503205219 | 30 | 121 | 6.4 | 22.5 | 0.00 | 0.00 | 0.00 | 67 | 1019.9 |
| 20260503205125 | 30 | 178 | 8.0 | 22.5 | 0.00 | 0.00 | 0.00 | 66 | 1020.1 |
| 20260503205006 | 30 | 226 | 9.7 | 22.5 | 0.00 | 0.00 | 0.00 | 66 | 1020.0 |
| 20260503204909 | 30 | 171 | 11.3 | 22.5 | 0.00 | 0.00 | 0.00 | 66 | 1020.0 |
| 20260503204812 | 30 | 219 | 9.7 | 19.3 | 0.00 | 0.00 | 0.00 | 66 | 1020.0 |
| 20260503204713 | 30 | 202 | 6.4 | 19.3 | 0.00 | 0.00 | 0.00 | 66 | 1020.0 |
| 20260503204617 | 30 | 205 | 6.4 | 19.3 | 0.00 | 0.00 | 0.00 | 66 | 1019.7 |
| 20260503204520 | 30 | 150 | 9.7 | 19.3 | 0.00 | 0.00 | 0.00 | 65 | 1019.8 |
| 20260503204405 | 30 | 204 | 9.7 | 20.9 | 0.00 | 0.00 | 0.00 | 65 | 1019.6 |
| 20260503204306 | 30 | 281 | 8.0 | 20.9 | 0.00 | 0.00 | 0.00 | 65 | 1019.6 |
| 20260503204208 | 30 | 105 | 9.7 | 20.9 | 0.00 | 0.00 | 0.00 | 65 | 1019.6 |
| 20260503204110 | 30 | 133 | 9.7 | 20.9 | 0.00 | 0.00 | 0.00 | 64 | 1019.5 |
| 20260503204013 | 30 | 123 | 6.4 | 20.9 | 0.00 | 0.00 | 0.00 | 64 | 1019.6 |
| 20260503203916 | 30 | 130 | 4.8 | 14.5 | 0.00 | 0.00 | 0.00 | 64 | 1019.6 |
| 20260503203819 | 30 | 124 | 6.4 | 14.5 | 0.00 | 0.00 | 0.00 | 64 | 1019.6 |
| 20260503203704 | 30 | 221 | 6.4 | 19.3 | 0.00 | 0.00 | 0.00 | 63 | 1019.6 |
| 20260503203605 | 30 | 144 | 4.8 | 19.3 | 0.00 | 0.00 | 0.00 | 63 | 1019.8 |
| 20260503203508 | 30 | 86 | 3.2 | 19.3 | 0.00 | 0.00 | 0.00 | 63 | 1019.8 |
| 20260503203412 | 30 | 238 | 4.8 | 19.3 | 0.00 | 0.00 | 0.00 | 63 | 1019.9 |
| 20260503203316 | 30 | 311 | 6.4 | 19.3 | 0.00 | 0.00 | 0.00 | 63 | 1019.9 |
| 20260503203220 | 30 | 228 | 4.8 | 19.3 | 0.00 | 0.00 | 0.00 | 63 | 1019.9 |
| 20260503203123 | 30 | 157 | 4.8 | 19.3 | 0.00 | 0.00 | 0.00 | 62 | 1020.1 |
| 20260503203010 | 30 | 143 | 4.8 | 19.3 | 0.00 | 0.00 | 0.00 | 62 | 1020.1 |
| 20260503202913 | 30 | 130 | 8.0 | 19.3 | 0.00 | 0.00 | 0.00 | 61 | 1020.2 |
| 20260503202816 | 31 | 250 | 9.7 | 19.3 | 0.00 | 0.00 | 0.00 | 62 | 1020.0 |
| 20260503202720 | 31 | 207 | 8.0 | 14.5 | 0.00 | 0.00 | 0.00 | 61 | 1020.0 |
| 20260503202623 | 31 | 259 | 8.0 | 14.5 | 0.00 | 0.00 | 0.00 | 61 | 1019.9 |
| 20260503202507 | 31 | 260 | 4.8 | 16.1 | 0.00 | 0.00 | 0.00 | 62 | 1019.9 |
| 20260503202414 | 31 | 208 | 4.8 | 16.1 | 0.00 | 0.00 | 0.00 | 62 | 1020.0 |
| 20260503202318 | 31 | 114 | 4.8 | 16.1 | 0.00 | 0.00 | 0.00 | 62 | 1019.9 |
| 20260503202239 | 31 | 204 | 3.2 | 16.1 | 0.00 | 0.00 | 0.00 | 62 | 1019.9 |
| 20260503202141 | 31 | 131 | 4.8 | 16.1 | 0.00 | 0.00 | 0.00 | 62 | 1019.8 |
| 20260503202021 | 31 | 117 | 4.8 | 16.1 | 0.00 | 0.00 | 0.00 | 62 | 1019.9 |
| 20260503201923 | 31 | 149 | 4.8 | 16.1 | 0.00 | 0.00 | 0.00 | 62 | 1019.9 |
| 20260503201806 | 31 | 213 | 6.4 | 16.1 | 0.00 | 0.00 | 0.00 | 62 | 1020.0 |
| 20260503201730 | 31 | 190 | 4.8 | 16.1 | 0.00 | 0.00 | 0.00 | 62 | 1020.1 |
| 20260503201634 | 31 | 293 | 4.8 | 16.1 | 0.00 | 0.00 | 0.00 | 62 | 1020.0 |
| 20260503201517 | 31 | 103 | 4.8 | 16.1 | 0.00 | 0.00 | 0.00 | 61 | 1020.0 |
| 20260503201421 | 31 | 212 | 6.4 | 16.1 | 0.00 | 0.00 | 0.00 | 61 | 1020.0 |
| 20260503201304 | 31 | 81 | 4.8 | 16.1 | 0.00 | 0.00 | 0.00 | 60 | 1019.9 |
| 20260503201209 | 31 | 123 | 8.0 | 16.1 | 0.00 | 0.00 | 0.00 | 60 | 1020.0 |
| 20260503201132 | 31 | 141 | 8.0 | 16.1 | 0.00 | 0.00 | 0.00 | 60 | 1020.0 |
| 20260503201034 | 31 | 127 | 4.8 | 16.1 | 0.00 | 0.00 | 0.00 | 60 | 1020.1 |
| 20260503200920 | 31 | 126 | 6.4 | 16.1 | 0.00 | 0.00 | 0.00 | 60 | 1020.1 |
| 20260503200823 | 31 | 141 | 4.8 | 16.1 | 0.00 | 0.00 | 0.00 | 60 | 1020.1 |
| 20260503200707 | 31 | 134 | 4.8 | 14.5 | 0.00 | 0.00 | 0.00 | 60 | 1020.1 |
| 20260503200609 | 31 | 134 | 6.4 | 14.5 | 0.00 | 0.00 | 0.00 | 60 | 1020.1 |
| 20260503200513 | 31 | 127 | 4.8 | 14.5 | 0.00 | 0.00 | 0.00 | 60 | 1020.1 |
| 20260503200415 | 31 | 146 | 4.8 | 14.5 | 0.00 | 0.00 | 0.00 | 61 | 1020.3 |
| 20260503200319 | 31 | 220 | 4.8 | 14.5 | 0.00 | 0.00 | 0.00 | 60 | 1020.3 |
| 20260503200227 | 31 | 237 | 4.8 | 14.5 | 0.00 | 0.00 | 0.00 | 59 | 1020.2 |
| 20260503200110 | 31 | 204 | 6.4 | 14.5 | 0.00 | 0.00 | 0.00 | 59 | 1020.2 |
| 20260503200013 | 31 | 242 | 6.4 | 14.5 | 0.00 | 0.00 | 0.00 | 60 | 1020.2 |
| 20260503195936 | 31 | 199 | 4.8 | 9.7 | 0.00 | 0.00 | 0.00 | 60 | 1020.3 |
| 20260503195839 | 31 | 228 | 4.8 | 11.3 | 0.00 | 0.00 | 0.00 | 59 | 1020.3 |
| 20260503195722 | 31 | 244 | 6.4 | 11.3 | 0.00 | 0.00 | 0.00 | 60 | 1020.4 |
| 20260503195604 | 30 | 268 | 4.8 | 11.3 | 0.00 | 0.00 | 0.00 | 61 | 1020.3 |
| 20260503195513 | 30 | 281 | 3.2 | 11.3 | 0.00 | 0.00 | 0.00 | 61 | 1020.4 |
| 20260503195416 | 30 | 314 | 4.8 | 11.3 | 0.00 | 0.00 | 0.00 | 61 | 1020.3 |
| 20260503195317 | 30 | 251 | 4.8 | 14.5 | 0.00 | 0.00 | 0.00 | 62 | 1020.4 |
| 20260503195241 | 30 | 257 | 4.8 | 14.5 | 0.00 | 0.00 | 0.00 | 62 | 1020.3 |
| 20260503195143 | 30 | 175 | 3.2 | 17.7 | 0.00 | 0.00 | 0.00 | 62 | 1020.4 |
| 20260503195025 | 30 | 161 | 1.6 | 17.7 | 0.00 | 0.00 | 0.00 | 63 | 1020.4 |
| 20260503194927 | 30 | 117 | 1.6 | 17.7 | 0.00 | 0.00 | 0.00 | 62 | 1020.5 |
| 20260503194808 | 30 | 118 | 4.8 | 17.7 | 0.00 | 0.00 | 0.00 | 62 | 1020.5 |
| 20260503194716 | 30 | 157 | 6.4 | 17.7 | 0.00 | 0.00 | 0.00 | 62 | 1020.6 |
| 20260503194619 | 30 | 109 | 6.4 | 17.7 | 0.00 | 0.00 | 0.00 | 62 | 1020.5 |
| 20260503194522 | 30 | 113 | 8.0 | 17.7 | 0.00 | 0.00 | 0.00 | 62 | 1020.6 |
| 20260503194406 | 30 | 111 | 11.3 | 17.7 | 0.00 | 0.00 | 0.00 | 61 | 1020.7 |
| 20260503194310 | 30 | 128 | 11.3 | 17.7 | 0.00 | 0.00 | 0.00 | 61 | 1020.7 |
| 20260503194213 | 30 | 132 | 8.0 | 17.7 | 0.00 | 0.00 | 0.00 | 63 | 1020.7 |
| 20260503194121 | 30 | 165 | 6.4 | 12.9 | 0.00 | 0.00 | 0.00 | 62 | 1020.7 |
| 20260503194005 | 30 | 206 | 4.8 | 14.5 | 0.00 | 0.00 | 0.00 | 61 | 1020.7 |
| 20260503193908 | 30 | 212 | 3.2 | 14.5 | 0.00 | 0.00 | 0.00 | 61 | 1020.7 |
| 20260503193830 | 30 | 117 | 3.2 | 16.1 | 0.00 | 0.00 | 0.00 | 62 | 1020.7 |
| 20260503193731 | 30 | 156 | 3.2 | 16.1 | 0.00 | 0.00 | 0.00 | 61 | 1020.9 |
| 20260503193634 | 30 | 117 | 4.8 | 16.1 | 0.00 | 0.00 | 0.00 | 62 | 1020.8 |
| 20260503193514 | 30 | 166 | 4.8 | 16.1 | 0.00 | 0.00 | 0.00 | 62 | 1020.9 |
| 20260503193436 | 30 | 166 | 4.8 | 16.1 | 0.00 | 0.00 | 0.00 | 62 | 1020.7 |
| 20260503193338 | 30 | 264 | 6.4 | 16.1 | 0.00 | 0.00 | 0.00 | 62 | 1020.7 |
| 20260503193205 | 30 | 265 | 8.0 | 16.1 | 0.00 | 0.00 | 0.00 | 62 | 1020.8 |
| 20260503193108 | 30 | 251 | 8.0 | 16.1 | 0.00 | 0.00 | 0.00 | 62 | 1020.8 |
| 20260503193032 | 30 | 184 | 8.0 | 16.1 | 0.00 | 0.00 | 0.00 | 61 | 1020.8 |
| 20260503192933 | 30 | 197 | 4.8 | 14.5 | 0.00 | 0.00 | 0.00 | 63 | 1020.8 |
| 20260503192815 | 30 | 194 | 3.2 | 19.3 | 0.00 | 0.00 | 0.00 | 63 | 1020.8 |
| 20260503192718 | 30 | 201 | 6.4 | 19.3 | 0.00 | 0.00 | 0.00 | 63 | 1020.8 |
| 20260503192622 | 30 | 134 | 8.0 | 19.3 | 0.00 | 0.00 | 0.00 | 63 | 1020.7 |
| 20260503192508 | 30 | 261 | 6.4 | 19.3 | 0.00 | 0.00 | 0.00 | 63 | 1020.7 |
| 20260503192412 | 30 | 284 | 8.0 | 19.3 | 0.00 | 0.00 | 0.00 | 63 | 1020.7 |
| 20260503192316 | 30 | 136 | 6.4 | 19.3 | 0.00 | 0.00 | 0.00 | 63 | 1020.8 |
| 20260503192218 | 30 | 91 | 8.0 | 19.3 | 0.00 | 0.00 | 0.00 | 63 | 1020.8 |
| 20260503192140 | 30 | 211 | 11.3 | 19.3 | 0.00 | 0.00 | 0.00 | 63 | 1020.9 |
| 20260503192043 | 30 | 169 | 9.7 | 19.3 | 0.00 | 0.00 | 0.00 | 63 | 1020.8 |
| 20260503191906 | 30 | 186 | 6.4 | 17.7 | 0.00 | 0.00 | 0.00 | 63 | 1020.9 |
| 20260503191812 | 30 | 267 | 8.0 | 17.7 | 0.00 | 0.00 | 0.00 | 63 | 1020.8 |
| 20260503191714 | 30 | 211 | 8.0 | 17.7 | 0.00 | 0.00 | 0.00 | 63 | 1020.9 |
| 20260503191617 | 30 | 238 | 8.0 | 17.7 | 0.00 | 0.00 | 0.00 | 63 | 1020.9 |
| 20260503191521 | 30 | 290 | 6.4 | 17.7 | 0.00 | 0.00 | 0.00 | 62 | 1020.9 |
| 20260503191404 | 30 | 215 | 6.4 | 17.7 | 0.00 | 0.00 | 0.00 | 62 | 1020.9 |
| 20260503191308 | 30 | 212 | 4.8 | 17.7 | 0.00 | 0.00 | 0.00 | 62 | 1020.9 |
| 20260503191211 | 30 | 189 | 3.2 | 17.7 | 0.00 | 0.00 | 0.00 | 62 | 1021.0 |
| 20260503191118 | 30 | 202 | 4.8 | 17.7 | 0.00 | 0.00 | 0.00 | 62 | 1020.9 |
| 20260503191042 | 30 | 222 | 6.4 | 17.7 | 0.00 | 0.00 | 0.00 | 62 | 1020.9 |
| 20260503190944 | 30 | 209 | 6.4 | 17.7 | 0.00 | 0.00 | 0.00 | 62 | 1021.1 |
| 20260503190805 | 30 | 186 | 6.4 | 17.7 | 0.00 | 0.00 | 0.00 | 62 | 1021.1 |
| 20260503190708 | 30 | 211 | 6.4 | 17.7 | 0.00 | 0.00 | 0.00 | 62 | 1021.0 |
| 20260503190611 | 30 | 226 | 8.0 | 17.7 | 0.00 | 0.00 | 0.00 | 62 | 1021.1 |
| 20260503190534 | 30 | 246 | 8.0 | 17.7 | 0.00 | 0.00 | 0.00 | 62 | 1021.2 |
| 20260503190437 | 30 | 227 | 8.0 | 16.1 | 0.00 | 0.00 | 0.00 | 62 | 1021.0 |
| 20260503190340 | 30 | 225 | 4.8 | 17.7 | 0.00 | 0.00 | 0.00 | 62 | 1021.1 |
| 20260503190206 | 30 | 177 | 3.2 | 19.3 | 0.00 | 0.00 | 0.00 | 62 | 1021.2 |
| 20260503190110 | 30 | 157 | 1.6 | 19.3 | 0.00 | 0.00 | 0.00 | 62 | 1021.2 |
| 20260503190012 | 29 | 156 | 3.2 | 19.3 | 0.00 | 0.00 | 0.00 | 62 | 1021.1 |
| 20260503185913 | 30 | 155 | 6.4 | 19.3 | 0.00 | 0.00 | 0.00 | 62 | 1021.2 |
| 20260503185815 | 29 | 143 | 4.8 | 19.3 | 0.00 | 0.00 | 0.00 | 62 | 1021.2 |
| 20260503185737 | 30 | 134 | 8.0 | 19.3 | 0.00 | 0.00 | 0.00 | 62 | 1021.3 |
| 20260503185639 | 30 | 136 | 9.7 | 19.3 | 0.00 | 0.00 | 0.00 | 62 | 1021.3 |
| 20260503185505 | 30 | 132 | 9.7 | 19.3 | 0.00 | 0.00 | 0.00 | 62 | 1021.3 |
| 20260503185408 | 30 | 159 | 6.4 | 19.3 | 0.00 | 0.00 | 0.00 | 62 | 1021.4 |
| 20260503185311 | 30 | 168 | 3.2 | 19.3 | 0.00 | 0.00 | 0.00 | 61 | 1021.4 |
| 20260503185215 | 30 | 78 | 6.4 | 19.3 | 0.00 | 0.00 | 0.00 | 61 | 1021.4 |
| 20260503185119 | 30 | 108 | 6.4 | 19.3 | 0.00 | 0.00 | 0.00 | 61 | 1021.3 |
| 20260503185043 | 30 | 155 | 4.8 | 19.3 | 0.00 | 0.00 | 0.00 | 61 | 1021.4 |
| 20260503184944 | 30 | 146 | 4.8 | 19.3 | 0.00 | 0.00 | 0.00 | 61 | 1021.4 |
| 20260503184828 | 30 | 175 | 8.0 | 19.3 | 0.00 | 0.00 | 0.00 | 60 | 1021.4 |
| 20260503184730 | 30 | 109 | 9.7 | 19.3 | 0.00 | 0.00 | 0.00 | 60 | 1021.5 |
| 20260503184613 | 31 | 148 | 8.0 | 19.3 | 0.00 | 0.00 | 0.00 | 59 | 1021.5 |
| 20260503184517 | 31 | 107 | 4.8 | 16.1 | 0.00 | 0.00 | 0.00 | 59 | 1021.5 |
| 20260503184420 | 31 | 94 | 4.8 | 16.1 | 0.00 | 0.00 | 0.00 | 59 | 1021.5 |
| 20260503184303 | 31 | 166 | 8.0 | 16.1 | 0.00 | 0.00 | 0.00 | 59 | 1021.4 |
| 20260503184205 | 31 | 161 | 6.4 | 16.1 | 0.00 | 0.00 | 0.00 | 59 | 1021.6 |
| 20260503184107 | 31 | 94 | 3.2 | 6.4 | 0.00 | 0.00 | 0.00 | 58 | 1021.6 |
| 20260503184014 | 31 | 112 | 3.2 | 6.4 | 0.00 | 0.00 | 0.00 | 58 | 1021.6 |
| 20260503183917 | 31 | 113 | 3.2 | 6.4 | 0.00 | 0.00 | 0.00 | 59 | 1021.6 |
| 20260503183818 | 31 | 114 | 1.6 | 6.4 | 0.00 | 0.00 | 0.00 | 60 | 1021.6 |
| 20260503183721 | 31 | 139 | 0.0 | 6.4 | 0.00 | 0.00 | 0.00 | 61 | 1021.5 |
| 20260503183624 | 30 | 166 | 1.6 | 6.4 | 0.00 | 0.00 | 0.00 | 61 | 1021.6 |
| 20260503183527 | 30 | 173 | 1.6 | 6.4 | 0.00 | 0.00 | 0.00 | 61 | 1021.6 |
| 20260503183410 | 30 | 175 | 1.6 | 6.4 | 0.00 | 0.00 | 0.00 | 61 | 1021.7 |
| 20260503183317 | 30 | 175 | 1.6 | 9.7 | 0.00 | 0.00 | 0.00 | 62 | 1021.7 |
| 20260503183221 | 30 | 176 | 1.6 | 9.7 | 0.00 | 0.00 | 0.00 | 63 | 1021.7 |
| 20260503183123 | 30 | 176 | 3.2 | 9.7 | 0.00 | 0.00 | 0.00 | 63 | 1021.8 |
| 20260503183005 | 29 | 177 | 4.8 | 9.7 | 0.00 | 0.00 | 0.00 | 64 | 1021.8 |
| 20260503182907 | 29 | 204 | 3.2 | 9.7 | 0.00 | 0.00 | 0.00 | 64 | 1021.8 |
| 20260503182811 | 29 | 119 | 3.2 | 9.7 | 0.00 | 0.00 | 0.00 | 64 | 1021.8 |
| 20260503182715 | 29 | 120 | 4.8 | 11.3 | 0.00 | 0.00 | 0.00 | 63 | 1021.9 |
| 20260503182623 | 29 | 120 | 4.8 | 11.3 | 0.00 | 0.00 | 0.00 | 63 | 1021.9 |
| 20260503182505 | 29 | 121 | 4.8 | 11.3 | 0.00 | 0.00 | 0.00 | 64 | 1021.9 |
| 20260503182408 | 29 | 121 | 4.8 | 11.3 | 0.00 | 0.00 | 0.00 | 63 | 1022.1 |
| 20260503182312 | 29 | 121 | 4.8 | 11.3 | 0.00 | 0.00 | 0.00 | 63 | 1022.0 |
| 20260503182215 | 29 | 118 | 3.2 | 11.3 | 0.00 | 0.00 | 0.00 | 64 | 1022.0 |
| 20260503182138 | 29 | 118 | 3.2 | 11.3 | 0.00 | 0.00 | 0.00 | 64 | 1022.1 |
| 20260503182038 | 29 | 117 | 6.4 | 14.5 | 0.00 | 0.00 | 0.00 | 64 | 1022.1 |
| 20260503181904 | 29 | 117 | 6.4 | 14.5 | 0.00 | 0.00 | 0.00 | 64 | 1022.1 |
| 20260503181808 | 29 | 124 | 4.8 | 14.5 | 0.00 | 0.00 | 0.00 | 63 | 1022.1 |
| 20260503181711 | 29 | 133 | 4.8 | 14.5 | 0.00 | 0.00 | 0.00 | 63 | 1022.1 |
| 20260503181615 | 29 | 133 | 4.8 | 14.5 | 0.00 | 0.00 | 0.00 | 63 | 1022.2 |
| 20260503181517 | 29 | 132 | 4.8 | 14.5 | 0.00 | 0.00 | 0.00 | 63 | 1022.1 |
| 20260503181420 | 29 | 133 | 4.8 | 14.5 | 0.00 | 0.00 | 0.00 | 63 | 1022.1 |
| 20260503181307 | 29 | 136 | 6.4 | 14.5 | 0.00 | 0.00 | 0.00 | 63 | 1022.2 |
| 20260503181211 | 30 | 125 | 8.0 | 14.5 | 0.00 | 0.00 | 0.00 | 63 | 1022.2 |
| 20260503181113 | 30 | 130 | 6.4 | 14.5 | 0.00 | 0.00 | 0.00 | 63 | 1022.2 |
| 20260503181015 | 30 | 115 | 3.2 | 9.7 | 0.00 | 0.00 | 0.00 | 63 | 1022.2 |
| 20260503180918 | 30 | 203 | 1.6 | 9.7 | 0.00 | 0.00 | 0.00 | 63 | 1022.2 |
| 20260503180821 | 30 | 242 | 3.2 | 9.7 | 0.00 | 0.00 | 0.00 | 63 | 1022.1 |
| 20260503180721 | 30 | 243 | 3.2 | 9.7 | 0.00 | 0.00 | 0.00 | 63 | 1022.2 |
| 20260503180608 | 30 | 241 | 3.2 | 9.7 | 0.00 | 0.00 | 0.00 | 63 | 1022.2 |
| 20260503180511 | 29 | 240 | 3.2 | 9.7 | 0.00 | 0.00 | 0.00 | 63 | 1022.2 |
| 20260503180415 | 29 | 240 | 1.6 | 9.7 | 0.00 | 0.00 | 0.00 | 63 | 1022.2 |
| 20260503180317 | 29 | 157 | 1.6 | 14.5 | 0.00 | 0.00 | 0.00 | 63 | 1022.3 |
| 20260503180221 | 29 | 157 | 3.2 | 14.5 | 0.00 | 0.00 | 0.00 | 63 | 1022.3 |
| 20260503180105 | 30 | 207 | 4.8 | 14.5 | 0.00 | 0.00 | 0.00 | 63 | 1022.3 |
| 20260503180012 | 30 | 208 | 4.8 | 14.5 | 0.00 | 0.00 | 0.00 | 63 | 1022.3 |
| 20260503175914 | 30 | 215 | 4.8 | 14.5 | 0.00 | 0.00 | 0.00 | 63 | 1022.4 |
| 20260503175818 | 30 | 218 | 4.8 | 14.5 | 0.00 | 0.00 | 0.00 | 63 | 1022.4 |
| 20260503175740 | 30 | 219 | 4.8 | 14.5 | 0.00 | 0.00 | 0.00 | 63 | 1022.5 |
| 20260503175641 | 30 | 226 | 6.4 | 14.5 | 0.00 | 0.00 | 0.00 | 63 | 1022.4 |
| 20260503175542 | 30 | 238 | 6.4 | 14.5 | 0.00 | 0.00 | 0.00 | 64 | 1022.5 |
| 20260503175425 | 29 | 118 | 3.2 | 14.5 | 0.00 | 0.00 | 0.00 | 64 | 1022.3 |
| 20260503175328 | 29 | 77 | 1.6 | 14.5 | 0.00 | 0.00 | 0.00 | 64 | 1022.4 |
| 20260503175210 | 29 | 93 | 3.2 | 14.5 | 0.00 | 0.00 | 0.00 | 64 | 1022.5 |
| 20260503175116 | 29 | 142 | 6.4 | 14.5 | 0.00 | 0.00 | 0.00 | 64 | 1022.6 |
| 20260503175020 | 29 | 158 | 9.7 | 14.5 | 0.00 | 0.00 | 0.00 | 63 | 1022.6 |
| 20260503174943 | 29 | 111 | 8.0 | 14.5 | 0.00 | 0.00 | 0.00 | 63 | 1022.7 |
| 20260503174805 | 29 | 144 | 3.2 | 12.9 | 0.00 | 0.00 | 0.00 | 64 | 1022.6 |
| 20260503174709 | 29 | 138 | 3.2 | 12.9 | 0.00 | 0.00 | 0.00 | 63 | 1022.6 |
| 20260503174612 | 29 | 145 | 4.8 | 12.9 | 0.00 | 0.00 | 0.00 | 63 | 1022.6 |
| 20260503174521 | 29 | 144 | 6.4 | 12.9 | 0.00 | 0.00 | 0.00 | 63 | 1022.6 |
| 20260503174405 | 29 | 111 | 4.8 | 12.9 | 0.00 | 0.00 | 0.00 | 64 | 1022.7 |
| 20260503174309 | 29 | 97 | 3.2 | 12.9 | 0.00 | 0.00 | 0.00 | 64 | 1022.7 |
| 20260503174214 | 29 | 167 | 3.2 | 12.9 | 0.00 | 0.00 | 0.00 | 64 | 1022.7 |
| 20260503174116 | 29 | 121 | 4.8 | 12.9 | 0.00 | 0.00 | 0.00 | 64 | 1022.6 |
| 20260503174019 | 29 | 121 | 6.4 | 12.9 | 0.00 | 0.00 | 0.00 | 64 | 1022.7 |
| 20260503173907 | 29 | 123 | 3.2 | 12.9 | 0.00 | 0.00 | 0.00 | 63 | 1022.7 |
| 20260503173811 | 29 | 133 | 3.2 | 8.0 | 0.00 | 0.00 | 0.00 | 63 | 1022.8 |
| 20260503173714 | 29 | 134 | 4.8 | 8.0 | 0.00 | 0.00 | 0.00 | 63 | 1022.8 |
| 20260503173637 | 29 | 139 | 6.4 | 8.0 | 0.00 | 0.00 | 0.00 | 64 | 1022.8 |
| 20260503173540 | 29 | 145 | 3.2 | 8.0 | 0.00 | 0.00 | 0.00 | 64 | 1022.8 |
| 20260503173422 | 29 | 163 | 3.2 | 8.0 | 0.00 | 0.00 | 0.00 | 64 | 1022.8 |
| 20260503173306 | 29 | 164 | 4.8 | 8.0 | 0.00 | 0.00 | 0.00 | 65 | 1022.8 |
| 20260503173214 | 29 | 165 | 3.2 | 8.0 | 0.00 | 0.00 | 0.00 | 64 | 1022.8 |
| 20260503173118 | 29 | 227 | 1.6 | 8.0 | 0.00 | 0.00 | 0.00 | 64 | 1022.7 |
| 20260503173021 | 29 | 148 | 1.6 | 8.0 | 0.00 | 0.00 | 0.00 | 64 | 1022.7 |
| 20260503172922 | 29 | 148 | 3.2 | 8.0 | 0.00 | 0.00 | 0.00 | 64 | 1022.9 |
| 20260503172805 | 28 | 259 | 3.2 | 8.0 | 0.00 | 0.00 | 0.00 | 64 | 1022.9 |
| 20260503172709 | 28 | 206 | 4.8 | 8.0 | 0.00 | 0.00 | 0.00 | 64 | 1022.9 |
| 20260503172633 | 28 | 207 | 4.8 | 8.0 | 0.00 | 0.00 | 0.00 | 64 | 1022.9 |
| 20260503172539 | 28 | 210 | 3.2 | 8.0 | 0.00 | 0.00 | 0.00 | 65 | 1022.8 |
| 20260503172421 | 28 | 221 | 3.2 | 11.3 | 0.00 | 0.00 | 0.00 | 65 | 1022.9 |
| 20260503172305 | 28 | 104 | 3.2 | 11.3 | 0.00 | 0.00 | 0.00 | 65 | 1023.0 |
| 20260503172206 | 28 | 93 | 1.6 | 11.3 | 0.00 | 0.00 | 0.00 | 65 | 1022.9 |
| 20260503172109 | 28 | 93 | 1.6 | 11.3 | 0.00 | 0.00 | 0.00 | 65 | 1023.0 |
| 20260503172011 | 28 | 93 | 1.6 | 11.3 | 0.00 | 0.00 | 0.00 | 65 | 1022.9 |
| 20260503171914 | 28 | 93 | 1.6 | 11.3 | 0.00 | 0.00 | 0.00 | 64 | 1023.1 |
| 20260503171822 | 28 | 93 | 3.2 | 11.3 | 0.00 | 0.00 | 0.00 | 65 | 1023.0 |
| 20260503171723 | 28 | 93 | 4.8 | 11.3 | 0.00 | 0.00 | 0.00 | 64 | 1023.0 |
| 20260503171605 | 28 | 128 | 6.4 | 11.3 | 0.00 | 0.00 | 0.00 | 64 | 1023.0 |
| 20260503171507 | 28 | 148 | 4.8 | 9.7 | 0.00 | 0.00 | 0.00 | 65 | 1023.0 |
| 20260503171410 | 28 | 174 | 1.6 | 6.4 | 0.00 | 0.00 | 0.00 | 65 | 1023.1 |
| 20260503171313 | 28 | 215 | 1.6 | 8.0 | 0.00 | 0.00 | 0.00 | 65 | 1023.0 |
| 20260503171237 | 28 | 217 | 1.6 | 8.0 | 0.00 | 0.00 | 0.00 | 65 | 1023.1 |
| 20260503171140 | 28 | 218 | 3.2 | 11.3 | 0.00 | 0.00 | 0.00 | 65 | 1023.0 |
| 20260503171027 | 28 | 228 | 4.8 | 12.9 | 0.00 | 0.00 | 0.00 | 65 | 1023.0 |
| 20260503170909 | 28 | 217 | 3.2 | 12.9 | 0.00 | 0.00 | 0.00 | 65 | 1023.0 |
| 20260503170834 | 28 | 215 | 1.6 | 12.9 | 0.00 | 0.00 | 0.00 | 66 | 1023.0 |
| 20260503170716 | 28 | 215 | 1.6 | 12.9 | 0.00 | 0.00 | 0.00 | 65 | 1023.0 |
| 20260503170620 | 28 | 286 | 3.2 | 12.9 | 0.00 | 0.00 | 0.00 | 65 | 1023.0 |
| 20260503170504 | 28 | 286 | 4.8 | 12.9 | 0.00 | 0.00 | 0.00 | 65 | 1022.8 |
| 20260503170408 | 28 | 281 | 6.4 | 12.9 | 0.00 | 0.00 | 0.00 | 65 | 1023.0 |
| 20260503170315 | 28 | 267 | 6.4 | 12.9 | 0.00 | 0.00 | 0.00 | 65 | 1023.0 |
| 20260503170219 | 28 | 269 | 6.4 | 12.9 | 0.00 | 0.00 | 0.00 | 65 | 1023.0 |
| 20260503170122 | 28 | 277 | 3.2 | 12.9 | 0.00 | 0.00 | 0.00 | 65 | 1023.0 |
| 20260503160119 | 30 | 233 | 4.8 | 11.3 | 0.00 | 0.00 | 0.00 | 59 | 1023.0 |
| 20260503150919 | 27 | 128 | 4.8 | 17.7 | 0.00 | 0.00 | 0.00 | 67 | 1023.1 |
| 20260503150821 | 27 | 127 | 4.8 | 17.7 | 0.00 | 0.00 | 0.00 | 67 | 1023.1 |
| 20260503150723 | 27 | 125 | 4.8 | 17.7 | 0.00 | 0.00 | 0.00 | 67 | 1023.1 |
| 20260503150606 | 27 | 116 | 9.7 | 17.7 | 0.00 | 0.00 | 0.00 | 67 | 1023.1 |
| 20260503150512 | 27 | 128 | 9.7 | 17.7 | 0.00 | 0.00 | 0.00 | 67 | 1023.2 |
| 20260503150413 | 27 | 112 | 8.0 | 17.7 | 0.00 | 0.00 | 0.00 | 66 | 1023.2 |
| 20260503150317 | 27 | 111 | 6.4 | 14.5 | 0.00 | 0.00 | 0.00 | 66 | 1023.2 |
| 20260503150220 | 27 | 118 | 8.0 | 14.5 | 0.00 | 0.00 | 0.00 | 66 | 1023.1 |
| 20260503150122 | 27 | 113 | 8.0 | 14.5 | 0.00 | 0.00 | 0.00 | 66 | 1023.2 |
| 20260503140308 | 25 | 306 | 1.6 | 3.2 | 0.00 | 0.00 | 0.00 | 74 | 1023.0 |
| 20260503140208 | 25 | 306 | 1.6 | 4.8 | 0.00 | 0.00 | 0.00 | 74 | 1022.9 |
| 20260503140110 | 25 | 306 | 1.6 | 4.8 | 0.00 | 0.00 | 0.00 | 74 | 1023.1 |
| 20260503131341 | 23 | 107 | 1.6 | 4.8 | 0.00 | 0.00 | 0.00 | 79 | 1022.9 |
| 20260503131203 | 23 | 107 | 3.2 | 4.8 | 0.00 | 0.00 | 0.00 | 79 | 1022.8 |
| 20260503131105 | 23 | 107 | 4.8 | 4.8 | 0.00 | 0.00 | 0.00 | 79 | 1022.8 |
| 20260503131013 | 23 | 107 | 3.2 | 4.8 | 0.00 | 0.00 | 0.00 | 79 | 1022.8 |
| 20260503130916 | 23 | 107 | 1.6 | 4.8 | 0.00 | 0.00 | 0.00 | 79 | 1022.7 |
| 20260503130840 | 23 | 107 | 1.6 | 4.8 | 0.00 | 0.00 | 0.00 | 79 | 1022.8 |
| 20260503130743 | 23 | 107 | 1.6 | 4.8 | 0.00 | 0.00 | 0.00 | 79 | 1022.8 |
| 20260503130624 | 23 | 107 | 1.6 | 4.8 | 0.00 | 0.00 | 0.00 | 79 | 1022.8 |
| 20260503130507 | 23 | 107 | 1.6 | 4.8 | 0.00 | 0.00 | 0.00 | 79 | 1022.9 |
| 20260503130410 | 23 | 107 | 1.6 | 4.8 | 0.00 | 0.00 | 0.00 | 79 | 1022.8 |
| 20260503130314 | 23 | 107 | 1.6 | 4.8 | 0.00 | 0.00 | 0.00 | 79 | 1022.9 |
| 20260503130242 | 23 | 107 | 3.2 | 4.8 | 0.00 | 0.00 | 0.00 | 79 | 1022.8 |
| 20260503130103 | 22 | 107 | 3.2 | 4.8 | 0.00 | 0.00 | 0.00 | 79 | 1022.8 |
| 20260503120211 | 22 | 225 | 0.0 | 4.8 | 0.00 | 0.00 | 0.00 | 81 | 1021.7 |
| 20260503120135 | 22 | 225 | 0.0 | 4.8 | 0.00 | 0.00 | 0.00 | 81 | 1021.7 |
| 20260503110822 | 22 | 227 | 3.2 | 8.0 | 0.00 | 0.00 | 0.00 | 81 | 1021.6 |
| 20260503110726 | 22 | 228 | 3.2 | 8.0 | 0.00 | 0.00 | 0.00 | 81 | 1021.6 |
| 20260503110628 | 22 | 146 | 3.2 | 4.8 | 0.00 | 0.00 | 0.00 | 81 | 1021.6 |
| 20260503110509 | 22 | 128 | 3.2 | 4.8 | 0.00 | 0.00 | 0.00 | 81 | 1021.6 |
| 20260503110410 | 22 | 128 | 3.2 | 4.8 | 0.00 | 0.00 | 0.00 | 81 | 1021.5 |
| 20260503110314 | 22 | 113 | 1.6 | 4.8 | 0.00 | 0.00 | 0.00 | 81 | 1021.6 |
| 20260503110220 | 22 | 108 | 1.6 | 4.8 | 0.00 | 0.00 | 0.00 | 81 | 1021.5 |
| 20260503110125 | 22 | 108 | 1.6 | 4.8 | 0.00 | 0.00 | 0.00 | 81 | 1021.6 |